<?xml version="1.0" encoding="UTF-8" standalone="no" ?>
<gpx xmlns="http://www.topografix.com/GPX/1/1" xmlns:xsi="http://www.w3.org/2001/XMLSchema-instance" xsi:schemaLocation="http://www.topografix.com/GPX/1/1 http://www.topografix.com/GPX/1/1/gpx.xsd" version="1.1" creator="VisuGPX - https://www.visugpx.com">
  <metadata>
    <name>64 CAUTERETS Plateau du Lisay </name>
    <desc><![CDATA[raquettes ]]></desc>
  </metadata>
  <trk>
    <name><![CDATA[Plateau du Lisay ]]></name>
    <desc><![CDATA[raquettes ]]></desc>
    <extensions>
      <line xmlns="http://www.topografix.com/GPX/gpx_style/0/2">
        <color>0000FF</color>
        <width>4</width>
      </line>
    </extensions>
    <trkseg>
      <trkpt lat="42.8928" lon="-0.10706">
        <ele>1096</ele>
        <time>2016-01-20T08:46:08Z</time>
      </trkpt>
      <trkpt lat="42.89272" lon="-0.10713">
        <ele>1098</ele>
        <time>2016-01-20T08:46:47Z</time>
      </trkpt>
      <trkpt lat="42.8928" lon="-0.10703">
        <ele>1094</ele>
        <time>2016-01-20T08:49:51Z</time>
      </trkpt>
      <trkpt lat="42.89286" lon="-0.10694">
        <ele>1094</ele>
        <time>2016-01-20T08:50:00Z</time>
      </trkpt>
      <trkpt lat="42.89291" lon="-0.10683">
        <ele>1091</ele>
        <time>2016-01-20T08:50:10Z</time>
      </trkpt>
      <trkpt lat="42.89295" lon="-0.10671">
        <ele>1090</ele>
        <time>2016-01-20T08:50:20Z</time>
      </trkpt>
      <trkpt lat="42.89299" lon="-0.10659">
        <ele>1088</ele>
        <time>2016-01-20T08:50:29Z</time>
      </trkpt>
      <trkpt lat="42.89304" lon="-0.10646">
        <ele>1087</ele>
        <time>2016-01-20T08:50:35Z</time>
      </trkpt>
      <trkpt lat="42.89309" lon="-0.10636">
        <ele>1085</ele>
        <time>2016-01-20T08:50:42Z</time>
      </trkpt>
      <trkpt lat="42.89315" lon="-0.10625">
        <ele>1084</ele>
        <time>2016-01-20T08:50:54Z</time>
      </trkpt>
      <trkpt lat="42.89314" lon="-0.10613">
        <ele>1083</ele>
        <time>2016-01-20T08:51:05Z</time>
      </trkpt>
      <trkpt lat="42.89309" lon="-0.10602">
        <ele>1084</ele>
        <time>2016-01-20T08:51:13Z</time>
      </trkpt>
      <trkpt lat="42.89307" lon="-0.1059">
        <ele>1084</ele>
        <time>2016-01-20T08:51:21Z</time>
      </trkpt>
      <trkpt lat="42.89305" lon="-0.10576">
        <ele>1087</ele>
        <time>2016-01-20T08:51:30Z</time>
      </trkpt>
      <trkpt lat="42.89299" lon="-0.10565">
        <ele>1084</ele>
        <time>2016-01-20T08:51:36Z</time>
      </trkpt>
      <trkpt lat="42.89299" lon="-0.10551">
        <ele>1086</ele>
        <time>2016-01-20T08:51:46Z</time>
      </trkpt>
      <trkpt lat="42.8931" lon="-0.10547">
        <ele>1091</ele>
        <time>2016-01-20T08:51:58Z</time>
      </trkpt>
      <trkpt lat="42.89319" lon="-0.10542">
        <ele>1084</ele>
        <time>2016-01-20T08:52:04Z</time>
      </trkpt>
      <trkpt lat="42.89328" lon="-0.10538">
        <ele>1077</ele>
        <time>2016-01-20T08:52:13Z</time>
      </trkpt>
      <trkpt lat="42.89337" lon="-0.1053">
        <ele>1079</ele>
        <time>2016-01-20T08:52:23Z</time>
      </trkpt>
      <trkpt lat="42.89346" lon="-0.10526">
        <ele>1084</ele>
        <time>2016-01-20T08:52:32Z</time>
      </trkpt>
      <trkpt lat="42.89356" lon="-0.10526">
        <ele>1083</ele>
        <time>2016-01-20T08:52:41Z</time>
      </trkpt>
      <trkpt lat="42.89365" lon="-0.10531">
        <ele>1088</ele>
        <time>2016-01-20T08:52:47Z</time>
      </trkpt>
      <trkpt lat="42.89375" lon="-0.1053">
        <ele>1088</ele>
        <time>2016-01-20T08:52:54Z</time>
      </trkpt>
      <trkpt lat="42.89384" lon="-0.10534">
        <ele>1095</ele>
        <time>2016-01-20T08:53:04Z</time>
      </trkpt>
      <trkpt lat="42.89394" lon="-0.10534">
        <ele>1093</ele>
        <time>2016-01-20T08:53:13Z</time>
      </trkpt>
      <trkpt lat="42.89404" lon="-0.10532">
        <ele>1094</ele>
        <time>2016-01-20T08:53:22Z</time>
      </trkpt>
      <trkpt lat="42.89413" lon="-0.10534">
        <ele>1095</ele>
        <time>2016-01-20T08:53:29Z</time>
      </trkpt>
      <trkpt lat="42.89422" lon="-0.10538">
        <ele>1093</ele>
        <time>2016-01-20T08:53:37Z</time>
      </trkpt>
      <trkpt lat="42.89431" lon="-0.10539">
        <ele>1092</ele>
        <time>2016-01-20T08:53:46Z</time>
      </trkpt>
      <trkpt lat="42.89441" lon="-0.10539">
        <ele>1091</ele>
        <time>2016-01-20T08:53:56Z</time>
      </trkpt>
      <trkpt lat="42.89451" lon="-0.1054">
        <ele>1091</ele>
        <time>2016-01-20T08:54:05Z</time>
      </trkpt>
      <trkpt lat="42.8946" lon="-0.10538">
        <ele>1088</ele>
        <time>2016-01-20T08:54:13Z</time>
      </trkpt>
      <trkpt lat="42.8947" lon="-0.10536">
        <ele>1089</ele>
        <time>2016-01-20T08:54:22Z</time>
      </trkpt>
      <trkpt lat="42.89477" lon="-0.10529">
        <ele>1090</ele>
        <time>2016-01-20T08:54:30Z</time>
      </trkpt>
      <trkpt lat="42.89484" lon="-0.1052">
        <ele>1085</ele>
        <time>2016-01-20T08:54:38Z</time>
      </trkpt>
      <trkpt lat="42.89489" lon="-0.10509">
        <ele>1088</ele>
        <time>2016-01-20T08:54:48Z</time>
      </trkpt>
      <trkpt lat="42.89495" lon="-0.105">
        <ele>1089</ele>
        <time>2016-01-20T08:54:56Z</time>
      </trkpt>
      <trkpt lat="42.89502" lon="-0.10491">
        <ele>1089</ele>
        <time>2016-01-20T08:55:05Z</time>
      </trkpt>
      <trkpt lat="42.89509" lon="-0.1048">
        <ele>1087</ele>
        <time>2016-01-20T08:55:15Z</time>
      </trkpt>
      <trkpt lat="42.89516" lon="-0.10472">
        <ele>1092</ele>
        <time>2016-01-20T08:55:28Z</time>
      </trkpt>
      <trkpt lat="42.89522" lon="-0.10461">
        <ele>1095</ele>
        <time>2016-01-20T08:55:38Z</time>
      </trkpt>
      <trkpt lat="42.89528" lon="-0.10451">
        <ele>1094</ele>
        <time>2016-01-20T08:55:46Z</time>
      </trkpt>
      <trkpt lat="42.89536" lon="-0.10444">
        <ele>1092</ele>
        <time>2016-01-20T08:55:56Z</time>
      </trkpt>
      <trkpt lat="42.89541" lon="-0.10433">
        <ele>1095</ele>
        <time>2016-01-20T08:56:04Z</time>
      </trkpt>
      <trkpt lat="42.89548" lon="-0.10424">
        <ele>1096</ele>
        <time>2016-01-20T08:56:13Z</time>
      </trkpt>
      <trkpt lat="42.89556" lon="-0.10417">
        <ele>1099</ele>
        <time>2016-01-20T08:56:24Z</time>
      </trkpt>
      <trkpt lat="42.89563" lon="-0.10409">
        <ele>1100</ele>
        <time>2016-01-20T08:56:34Z</time>
      </trkpt>
      <trkpt lat="42.8957" lon="-0.10401">
        <ele>1101</ele>
        <time>2016-01-20T08:56:42Z</time>
      </trkpt>
      <trkpt lat="42.89579" lon="-0.10398">
        <ele>1104</ele>
        <time>2016-01-20T08:56:51Z</time>
      </trkpt>
      <trkpt lat="42.89587" lon="-0.10389">
        <ele>1106</ele>
        <time>2016-01-20T08:56:59Z</time>
      </trkpt>
      <trkpt lat="42.89596" lon="-0.10386">
        <ele>1107</ele>
        <time>2016-01-20T08:57:08Z</time>
      </trkpt>
      <trkpt lat="42.89606" lon="-0.10379">
        <ele>1109</ele>
        <time>2016-01-20T08:57:18Z</time>
      </trkpt>
      <trkpt lat="42.89615" lon="-0.10374">
        <ele>1109</ele>
        <time>2016-01-20T08:57:26Z</time>
      </trkpt>
      <trkpt lat="42.89624" lon="-0.10367">
        <ele>1115</ele>
        <time>2016-01-20T08:57:37Z</time>
      </trkpt>
      <trkpt lat="42.89614" lon="-0.10365">
        <ele>1112</ele>
        <time>2016-01-20T08:57:51Z</time>
      </trkpt>
      <trkpt lat="42.89606" lon="-0.10373">
        <ele>1116</ele>
        <time>2016-01-20T08:58:01Z</time>
      </trkpt>
      <trkpt lat="42.89597" lon="-0.10381">
        <ele>1117</ele>
        <time>2016-01-20T08:58:11Z</time>
      </trkpt>
      <trkpt lat="42.89589" lon="-0.10387">
        <ele>1118</ele>
        <time>2016-01-20T08:58:19Z</time>
      </trkpt>
      <trkpt lat="42.8958" lon="-0.10388">
        <ele>1120</ele>
        <time>2016-01-20T08:58:27Z</time>
      </trkpt>
      <trkpt lat="42.89571" lon="-0.10395">
        <ele>1120</ele>
        <time>2016-01-20T08:58:34Z</time>
      </trkpt>
      <trkpt lat="42.89561" lon="-0.10394">
        <ele>1118</ele>
        <time>2016-01-20T08:58:47Z</time>
      </trkpt>
      <trkpt lat="42.89551" lon="-0.10399">
        <ele>1118</ele>
        <time>2016-01-20T08:58:59Z</time>
      </trkpt>
      <trkpt lat="42.89542" lon="-0.10403">
        <ele>1119</ele>
        <time>2016-01-20T08:59:08Z</time>
      </trkpt>
      <trkpt lat="42.89534" lon="-0.10407">
        <ele>1121</ele>
        <time>2016-01-20T08:59:37Z</time>
      </trkpt>
      <trkpt lat="42.89525" lon="-0.10412">
        <ele>1120</ele>
        <time>2016-01-20T08:59:48Z</time>
      </trkpt>
      <trkpt lat="42.89516" lon="-0.10417">
        <ele>1121</ele>
        <time>2016-01-20T08:59:56Z</time>
      </trkpt>
      <trkpt lat="42.89507" lon="-0.10419">
        <ele>1121</ele>
        <time>2016-01-20T09:00:05Z</time>
      </trkpt>
      <trkpt lat="42.89497" lon="-0.10418">
        <ele>1121</ele>
        <time>2016-01-20T09:00:16Z</time>
      </trkpt>
      <trkpt lat="42.89487" lon="-0.10419">
        <ele>1122</ele>
        <time>2016-01-20T09:00:26Z</time>
      </trkpt>
      <trkpt lat="42.89477" lon="-0.10423">
        <ele>1126</ele>
        <time>2016-01-20T09:00:34Z</time>
      </trkpt>
      <trkpt lat="42.89467" lon="-0.10426">
        <ele>1129</ele>
        <time>2016-01-20T09:00:44Z</time>
      </trkpt>
      <trkpt lat="42.89459" lon="-0.1043">
        <ele>1129</ele>
        <time>2016-01-20T09:00:54Z</time>
      </trkpt>
      <trkpt lat="42.8945" lon="-0.10435">
        <ele>1130</ele>
        <time>2016-01-20T09:01:04Z</time>
      </trkpt>
      <trkpt lat="42.89441" lon="-0.10439">
        <ele>1130</ele>
        <time>2016-01-20T09:01:15Z</time>
      </trkpt>
      <trkpt lat="42.89432" lon="-0.10444">
        <ele>1130</ele>
        <time>2016-01-20T09:01:24Z</time>
      </trkpt>
      <trkpt lat="42.89423" lon="-0.1045">
        <ele>1130</ele>
        <time>2016-01-20T09:01:32Z</time>
      </trkpt>
      <trkpt lat="42.89414" lon="-0.10453">
        <ele>1132</ele>
        <time>2016-01-20T09:01:41Z</time>
      </trkpt>
      <trkpt lat="42.89406" lon="-0.1046">
        <ele>1130</ele>
        <time>2016-01-20T09:01:50Z</time>
      </trkpt>
      <trkpt lat="42.89399" lon="-0.10453">
        <ele>1129</ele>
        <time>2016-01-20T09:01:59Z</time>
      </trkpt>
      <trkpt lat="42.89403" lon="-0.10441">
        <ele>1131</ele>
        <time>2016-01-20T09:02:11Z</time>
      </trkpt>
      <trkpt lat="42.89409" lon="-0.10432">
        <ele>1132</ele>
        <time>2016-01-20T09:03:12Z</time>
      </trkpt>
      <trkpt lat="42.89415" lon="-0.10421">
        <ele>1131</ele>
        <time>2016-01-20T09:03:34Z</time>
      </trkpt>
      <trkpt lat="42.89423" lon="-0.10414">
        <ele>1134</ele>
        <time>2016-01-20T09:03:41Z</time>
      </trkpt>
      <trkpt lat="42.89431" lon="-0.10407">
        <ele>1131</ele>
        <time>2016-01-20T09:03:48Z</time>
      </trkpt>
      <trkpt lat="42.89441" lon="-0.10403">
        <ele>1134</ele>
        <time>2016-01-20T09:03:57Z</time>
      </trkpt>
      <trkpt lat="42.89449" lon="-0.10396">
        <ele>1134</ele>
        <time>2016-01-20T09:04:06Z</time>
      </trkpt>
      <trkpt lat="42.89457" lon="-0.10385">
        <ele>1141</ele>
        <time>2016-01-20T09:04:35Z</time>
      </trkpt>
      <trkpt lat="42.89466" lon="-0.1038">
        <ele>1147</ele>
        <time>2016-01-20T09:04:41Z</time>
      </trkpt>
      <trkpt lat="42.89474" lon="-0.10374">
        <ele>1152</ele>
        <time>2016-01-20T09:04:51Z</time>
      </trkpt>
      <trkpt lat="42.89483" lon="-0.10368">
        <ele>1153</ele>
        <time>2016-01-20T09:05:00Z</time>
      </trkpt>
      <trkpt lat="42.89489" lon="-0.10358">
        <ele>1152</ele>
        <time>2016-01-20T09:05:09Z</time>
      </trkpt>
      <trkpt lat="42.89496" lon="-0.1035">
        <ele>1153</ele>
        <time>2016-01-20T09:05:18Z</time>
      </trkpt>
      <trkpt lat="42.89506" lon="-0.10349">
        <ele>1154</ele>
        <time>2016-01-20T09:05:27Z</time>
      </trkpt>
      <trkpt lat="42.89514" lon="-0.10341">
        <ele>1153</ele>
        <time>2016-01-20T09:05:36Z</time>
      </trkpt>
      <trkpt lat="42.89522" lon="-0.10334">
        <ele>1153</ele>
        <time>2016-01-20T09:05:46Z</time>
      </trkpt>
      <trkpt lat="42.8953" lon="-0.1033">
        <ele>1160</ele>
        <time>2016-01-20T09:06:00Z</time>
      </trkpt>
      <trkpt lat="42.8954" lon="-0.10322">
        <ele>1160</ele>
        <time>2016-01-20T09:06:23Z</time>
      </trkpt>
      <trkpt lat="42.89548" lon="-0.10314">
        <ele>1158</ele>
        <time>2016-01-20T09:06:28Z</time>
      </trkpt>
      <trkpt lat="42.89555" lon="-0.10304">
        <ele>1162</ele>
        <time>2016-01-20T09:06:36Z</time>
      </trkpt>
      <trkpt lat="42.89562" lon="-0.10294">
        <ele>1165</ele>
        <time>2016-01-20T09:06:54Z</time>
      </trkpt>
      <trkpt lat="42.89571" lon="-0.10285">
        <ele>1166</ele>
        <time>2016-01-20T09:07:02Z</time>
      </trkpt>
      <trkpt lat="42.89576" lon="-0.10274">
        <ele>1165</ele>
        <time>2016-01-20T09:07:12Z</time>
      </trkpt>
      <trkpt lat="42.89582" lon="-0.10263">
        <ele>1169</ele>
        <time>2016-01-20T09:07:25Z</time>
      </trkpt>
      <trkpt lat="42.89586" lon="-0.10251">
        <ele>1172</ele>
        <time>2016-01-20T09:07:44Z</time>
      </trkpt>
      <trkpt lat="42.89592" lon="-0.10241">
        <ele>1174</ele>
        <time>2016-01-20T09:07:55Z</time>
      </trkpt>
      <trkpt lat="42.89598" lon="-0.10232">
        <ele>1169</ele>
        <time>2016-01-20T09:08:05Z</time>
      </trkpt>
      <trkpt lat="42.89607" lon="-0.10227">
        <ele>1172</ele>
        <time>2016-01-20T09:08:15Z</time>
      </trkpt>
      <trkpt lat="42.89616" lon="-0.10225">
        <ele>1175</ele>
        <time>2016-01-20T09:08:28Z</time>
      </trkpt>
      <trkpt lat="42.89625" lon="-0.10221">
        <ele>1179</ele>
        <time>2016-01-20T09:08:40Z</time>
      </trkpt>
      <trkpt lat="42.89635" lon="-0.10224">
        <ele>1182</ele>
        <time>2016-01-20T09:08:53Z</time>
      </trkpt>
      <trkpt lat="42.89645" lon="-0.10224">
        <ele>1179</ele>
        <time>2016-01-20T09:09:02Z</time>
      </trkpt>
      <trkpt lat="42.89654" lon="-0.10222">
        <ele>1183</ele>
        <time>2016-01-20T09:09:17Z</time>
      </trkpt>
      <trkpt lat="42.89663" lon="-0.1022">
        <ele>1183</ele>
        <time>2016-01-20T09:09:27Z</time>
      </trkpt>
      <trkpt lat="42.89672" lon="-0.10222">
        <ele>1184</ele>
        <time>2016-01-20T09:09:37Z</time>
      </trkpt>
      <trkpt lat="42.89681" lon="-0.1022">
        <ele>1186</ele>
        <time>2016-01-20T09:09:47Z</time>
      </trkpt>
      <trkpt lat="42.89685" lon="-0.10208">
        <ele>1188</ele>
        <time>2016-01-20T09:10:02Z</time>
      </trkpt>
      <trkpt lat="42.89675" lon="-0.10205">
        <ele>1193</ele>
        <time>2016-01-20T09:10:15Z</time>
      </trkpt>
      <trkpt lat="42.89665" lon="-0.10205">
        <ele>1193</ele>
        <time>2016-01-20T09:10:28Z</time>
      </trkpt>
      <trkpt lat="42.89655" lon="-0.10208">
        <ele>1193</ele>
        <time>2016-01-20T09:10:39Z</time>
      </trkpt>
      <trkpt lat="42.89646" lon="-0.10208">
        <ele>1192</ele>
        <time>2016-01-20T09:10:47Z</time>
      </trkpt>
      <trkpt lat="42.89637" lon="-0.10201">
        <ele>1197</ele>
        <time>2016-01-20T09:10:57Z</time>
      </trkpt>
      <trkpt lat="42.89629" lon="-0.10195">
        <ele>1194</ele>
        <time>2016-01-20T09:11:08Z</time>
      </trkpt>
      <trkpt lat="42.8962" lon="-0.10201">
        <ele>1202</ele>
        <time>2016-01-20T09:11:20Z</time>
      </trkpt>
      <trkpt lat="42.89611" lon="-0.10198">
        <ele>1202</ele>
        <time>2016-01-20T09:11:33Z</time>
      </trkpt>
      <trkpt lat="42.89601" lon="-0.10203">
        <ele>1204</ele>
        <time>2016-01-20T09:11:39Z</time>
      </trkpt>
      <trkpt lat="42.89592" lon="-0.10201">
        <ele>1207</ele>
        <time>2016-01-20T09:11:51Z</time>
      </trkpt>
      <trkpt lat="42.89583" lon="-0.10209">
        <ele>1209</ele>
        <time>2016-01-20T09:12:00Z</time>
      </trkpt>
      <trkpt lat="42.89574" lon="-0.10207">
        <ele>1208</ele>
        <time>2016-01-20T09:12:15Z</time>
      </trkpt>
      <trkpt lat="42.89565" lon="-0.10212">
        <ele>1213</ele>
        <time>2016-01-20T09:12:31Z</time>
      </trkpt>
      <trkpt lat="42.89557" lon="-0.10219">
        <ele>1216</ele>
        <time>2016-01-20T09:12:53Z</time>
      </trkpt>
      <trkpt lat="42.89547" lon="-0.10224">
        <ele>1215</ele>
        <time>2016-01-20T09:13:04Z</time>
      </trkpt>
      <trkpt lat="42.89538" lon="-0.10229">
        <ele>1214</ele>
        <time>2016-01-20T09:13:13Z</time>
      </trkpt>
      <trkpt lat="42.89531" lon="-0.10237">
        <ele>1216</ele>
        <time>2016-01-20T09:13:21Z</time>
      </trkpt>
      <trkpt lat="42.89523" lon="-0.10245">
        <ele>1213</ele>
        <time>2016-01-20T09:13:34Z</time>
      </trkpt>
      <trkpt lat="42.89515" lon="-0.10251">
        <ele>1209</ele>
        <time>2016-01-20T09:13:43Z</time>
      </trkpt>
      <trkpt lat="42.89505" lon="-0.10253">
        <ele>1211</ele>
        <time>2016-01-20T09:13:54Z</time>
      </trkpt>
      <trkpt lat="42.89496" lon="-0.10255">
        <ele>1208</ele>
        <time>2016-01-20T09:14:04Z</time>
      </trkpt>
      <trkpt lat="42.89486" lon="-0.10257">
        <ele>1211</ele>
        <time>2016-01-20T09:14:12Z</time>
      </trkpt>
      <trkpt lat="42.89476" lon="-0.1026">
        <ele>1215</ele>
        <time>2016-01-20T09:14:22Z</time>
      </trkpt>
      <trkpt lat="42.89467" lon="-0.10262">
        <ele>1219</ele>
        <time>2016-01-20T09:14:33Z</time>
      </trkpt>
      <trkpt lat="42.89457" lon="-0.10261">
        <ele>1219</ele>
        <time>2016-01-20T09:14:45Z</time>
      </trkpt>
      <trkpt lat="42.89448" lon="-0.1026">
        <ele>1218</ele>
        <time>2016-01-20T09:14:54Z</time>
      </trkpt>
      <trkpt lat="42.89439" lon="-0.10261">
        <ele>1220</ele>
        <time>2016-01-20T09:15:05Z</time>
      </trkpt>
      <trkpt lat="42.8943" lon="-0.10265">
        <ele>1221</ele>
        <time>2016-01-20T09:15:13Z</time>
      </trkpt>
      <trkpt lat="42.89421" lon="-0.10265">
        <ele>1221</ele>
        <time>2016-01-20T09:15:25Z</time>
      </trkpt>
      <trkpt lat="42.89412" lon="-0.1026">
        <ele>1219</ele>
        <time>2016-01-20T09:15:38Z</time>
      </trkpt>
      <trkpt lat="42.89415" lon="-0.10247">
        <ele>1218</ele>
        <time>2016-01-20T09:15:50Z</time>
      </trkpt>
      <trkpt lat="42.89423" lon="-0.10241">
        <ele>1221</ele>
        <time>2016-01-20T09:16:12Z</time>
      </trkpt>
      <trkpt lat="42.89432" lon="-0.10235">
        <ele>1226</ele>
        <time>2016-01-20T09:16:21Z</time>
      </trkpt>
      <trkpt lat="42.8944" lon="-0.10229">
        <ele>1230</ele>
        <time>2016-01-20T09:16:36Z</time>
      </trkpt>
      <trkpt lat="42.89449" lon="-0.10227">
        <ele>1234</ele>
        <time>2016-01-20T09:16:45Z</time>
      </trkpt>
      <trkpt lat="42.89456" lon="-0.1022">
        <ele>1234</ele>
        <time>2016-01-20T09:16:52Z</time>
      </trkpt>
      <trkpt lat="42.89465" lon="-0.10216">
        <ele>1229</ele>
        <time>2016-01-20T09:17:06Z</time>
      </trkpt>
      <trkpt lat="42.89473" lon="-0.10209">
        <ele>1227</ele>
        <time>2016-01-20T09:17:12Z</time>
      </trkpt>
      <trkpt lat="42.89482" lon="-0.10204">
        <ele>1229</ele>
        <time>2016-01-20T09:17:21Z</time>
      </trkpt>
      <trkpt lat="42.89489" lon="-0.10196">
        <ele>1233</ele>
        <time>2016-01-20T09:17:31Z</time>
      </trkpt>
      <trkpt lat="42.89497" lon="-0.10188">
        <ele>1235</ele>
        <time>2016-01-20T09:17:41Z</time>
      </trkpt>
      <trkpt lat="42.89502" lon="-0.10178">
        <ele>1232</ele>
        <time>2016-01-20T09:17:52Z</time>
      </trkpt>
      <trkpt lat="42.89511" lon="-0.10172">
        <ele>1232</ele>
        <time>2016-01-20T09:18:01Z</time>
      </trkpt>
      <trkpt lat="42.89517" lon="-0.10163">
        <ele>1234</ele>
        <time>2016-01-20T09:18:13Z</time>
      </trkpt>
      <trkpt lat="42.89523" lon="-0.10153">
        <ele>1236</ele>
        <time>2016-01-20T09:18:28Z</time>
      </trkpt>
      <trkpt lat="42.89532" lon="-0.10146">
        <ele>1238</ele>
        <time>2016-01-20T09:18:42Z</time>
      </trkpt>
      <trkpt lat="42.89541" lon="-0.10142">
        <ele>1242</ele>
        <time>2016-01-20T09:18:57Z</time>
      </trkpt>
      <trkpt lat="42.8955" lon="-0.10145">
        <ele>1242</ele>
        <time>2016-01-20T09:19:09Z</time>
      </trkpt>
      <trkpt lat="42.89559" lon="-0.10142">
        <ele>1240</ele>
        <time>2016-01-20T09:19:17Z</time>
      </trkpt>
      <trkpt lat="42.89568" lon="-0.10135">
        <ele>1238</ele>
        <time>2016-01-20T09:19:33Z</time>
      </trkpt>
      <trkpt lat="42.89577" lon="-0.10131">
        <ele>1236</ele>
        <time>2016-01-20T09:19:45Z</time>
      </trkpt>
      <trkpt lat="42.89584" lon="-0.10123">
        <ele>1230</ele>
        <time>2016-01-20T09:19:57Z</time>
      </trkpt>
      <trkpt lat="42.8959" lon="-0.10113">
        <ele>1234</ele>
        <time>2016-01-20T09:20:10Z</time>
      </trkpt>
      <trkpt lat="42.89594" lon="-0.10101">
        <ele>1235</ele>
        <time>2016-01-20T09:20:22Z</time>
      </trkpt>
      <trkpt lat="42.89598" lon="-0.10089">
        <ele>1242</ele>
        <time>2016-01-20T09:20:33Z</time>
      </trkpt>
      <trkpt lat="42.89607" lon="-0.1008">
        <ele>1250</ele>
        <time>2016-01-20T09:20:53Z</time>
      </trkpt>
      <trkpt lat="42.89616" lon="-0.10079">
        <ele>1254</ele>
        <time>2016-01-20T09:21:05Z</time>
      </trkpt>
      <trkpt lat="42.89627" lon="-0.10073">
        <ele>1253</ele>
        <time>2016-01-20T09:21:33Z</time>
      </trkpt>
      <trkpt lat="42.89634" lon="-0.10064">
        <ele>1252</ele>
        <time>2016-01-20T09:21:38Z</time>
      </trkpt>
      <trkpt lat="42.89642" lon="-0.10057">
        <ele>1254</ele>
        <time>2016-01-20T09:21:43Z</time>
      </trkpt>
      <trkpt lat="42.89652" lon="-0.10057">
        <ele>1257</ele>
        <time>2016-01-20T09:24:55Z</time>
      </trkpt>
      <trkpt lat="42.89662" lon="-0.10051">
        <ele>1257</ele>
        <time>2016-01-20T09:25:03Z</time>
      </trkpt>
      <trkpt lat="42.8967" lon="-0.10045">
        <ele>1264</ele>
        <time>2016-01-20T09:25:14Z</time>
      </trkpt>
      <trkpt lat="42.89675" lon="-0.10034">
        <ele>1262</ele>
        <time>2016-01-20T09:25:19Z</time>
      </trkpt>
      <trkpt lat="42.89684" lon="-0.10029">
        <ele>1257</ele>
        <time>2016-01-20T09:25:28Z</time>
      </trkpt>
      <trkpt lat="42.89693" lon="-0.10027">
        <ele>1257</ele>
        <time>2016-01-20T09:25:36Z</time>
      </trkpt>
      <trkpt lat="42.897" lon="-0.10018">
        <ele>1257</ele>
        <time>2016-01-20T09:25:45Z</time>
      </trkpt>
      <trkpt lat="42.8971" lon="-0.10016">
        <ele>1261</ele>
        <time>2016-01-20T09:25:58Z</time>
      </trkpt>
      <trkpt lat="42.8972" lon="-0.10012">
        <ele>1264</ele>
        <time>2016-01-20T09:26:07Z</time>
      </trkpt>
      <trkpt lat="42.8973" lon="-0.10012">
        <ele>1265</ele>
        <time>2016-01-20T09:26:20Z</time>
      </trkpt>
      <trkpt lat="42.89739" lon="-0.10009">
        <ele>1255</ele>
        <time>2016-01-20T09:26:34Z</time>
      </trkpt>
      <trkpt lat="42.89748" lon="-0.10007">
        <ele>1260</ele>
        <time>2016-01-20T09:26:52Z</time>
      </trkpt>
      <trkpt lat="42.89757" lon="-0.10008">
        <ele>1261</ele>
        <time>2016-01-20T09:27:03Z</time>
      </trkpt>
      <trkpt lat="42.89766" lon="-0.10005">
        <ele>1260</ele>
        <time>2016-01-20T09:27:17Z</time>
      </trkpt>
      <trkpt lat="42.89775" lon="-0.10001">
        <ele>1261</ele>
        <time>2016-01-20T09:27:32Z</time>
      </trkpt>
      <trkpt lat="42.89783" lon="-0.09993">
        <ele>1261</ele>
        <time>2016-01-20T09:27:45Z</time>
      </trkpt>
      <trkpt lat="42.89788" lon="-0.09981">
        <ele>1264</ele>
        <time>2016-01-20T09:27:58Z</time>
      </trkpt>
      <trkpt lat="42.89794" lon="-0.09972">
        <ele>1267</ele>
        <time>2016-01-20T09:28:14Z</time>
      </trkpt>
      <trkpt lat="42.89801" lon="-0.09963">
        <ele>1265</ele>
        <time>2016-01-20T09:28:25Z</time>
      </trkpt>
      <trkpt lat="42.89807" lon="-0.09953">
        <ele>1269</ele>
        <time>2016-01-20T09:28:39Z</time>
      </trkpt>
      <trkpt lat="42.89813" lon="-0.09943">
        <ele>1271</ele>
        <time>2016-01-20T09:28:54Z</time>
      </trkpt>
      <trkpt lat="42.89819" lon="-0.09933">
        <ele>1272</ele>
        <time>2016-01-20T09:29:07Z</time>
      </trkpt>
      <trkpt lat="42.89823" lon="-0.09922">
        <ele>1271</ele>
        <time>2016-01-20T09:29:22Z</time>
      </trkpt>
      <trkpt lat="42.89827" lon="-0.0991">
        <ele>1276</ele>
        <time>2016-01-20T09:29:38Z</time>
      </trkpt>
      <trkpt lat="42.89832" lon="-0.09899">
        <ele>1278</ele>
        <time>2016-01-20T09:29:49Z</time>
      </trkpt>
      <trkpt lat="42.89833" lon="-0.09887">
        <ele>1279</ele>
        <time>2016-01-20T09:30:03Z</time>
      </trkpt>
      <trkpt lat="42.89837" lon="-0.09876">
        <ele>1280</ele>
        <time>2016-01-20T09:30:15Z</time>
      </trkpt>
      <trkpt lat="42.89843" lon="-0.09866">
        <ele>1282</ele>
        <time>2016-01-20T09:30:30Z</time>
      </trkpt>
      <trkpt lat="42.89849" lon="-0.09856">
        <ele>1281</ele>
        <time>2016-01-20T09:30:44Z</time>
      </trkpt>
      <trkpt lat="42.89855" lon="-0.09847">
        <ele>1280</ele>
        <time>2016-01-20T09:30:57Z</time>
      </trkpt>
      <trkpt lat="42.89861" lon="-0.09837">
        <ele>1285</ele>
        <time>2016-01-20T09:31:24Z</time>
      </trkpt>
      <trkpt lat="42.89867" lon="-0.09827">
        <ele>1288</ele>
        <time>2016-01-20T09:31:30Z</time>
      </trkpt>
      <trkpt lat="42.89874" lon="-0.09818">
        <ele>1289</ele>
        <time>2016-01-20T09:31:40Z</time>
      </trkpt>
      <trkpt lat="42.89883" lon="-0.09812">
        <ele>1297</ele>
        <time>2016-01-20T09:34:52Z</time>
      </trkpt>
      <trkpt lat="42.89884" lon="-0.09799">
        <ele>1298</ele>
        <time>2016-01-20T09:35:03Z</time>
      </trkpt>
      <trkpt lat="42.89888" lon="-0.09787">
        <ele>1291</ele>
        <time>2016-01-20T09:35:18Z</time>
      </trkpt>
      <trkpt lat="42.89891" lon="-0.09775">
        <ele>1301</ele>
        <time>2016-01-20T09:39:06Z</time>
      </trkpt>
      <trkpt lat="42.89899" lon="-0.09767">
        <ele>1302</ele>
        <time>2016-01-20T09:39:35Z</time>
      </trkpt>
      <trkpt lat="42.89906" lon="-0.09759">
        <ele>1304</ele>
        <time>2016-01-20T09:39:41Z</time>
      </trkpt>
      <trkpt lat="42.89913" lon="-0.09749">
        <ele>1306</ele>
        <time>2016-01-20T09:39:47Z</time>
      </trkpt>
      <trkpt lat="42.8992" lon="-0.0974">
        <ele>1307</ele>
        <time>2016-01-20T09:40:03Z</time>
      </trkpt>
      <trkpt lat="42.89926" lon="-0.0973">
        <ele>1308</ele>
        <time>2016-01-20T09:40:15Z</time>
      </trkpt>
      <trkpt lat="42.89917" lon="-0.09728">
        <ele>1308</ele>
        <time>2016-01-20T09:40:45Z</time>
      </trkpt>
      <trkpt lat="42.89913" lon="-0.0974">
        <ele>1311</ele>
        <time>2016-01-20T09:41:02Z</time>
      </trkpt>
      <trkpt lat="42.89904" lon="-0.09747">
        <ele>1309</ele>
        <time>2016-01-20T09:41:12Z</time>
      </trkpt>
      <trkpt lat="42.89896" lon="-0.09753">
        <ele>1313</ele>
        <time>2016-01-20T09:41:19Z</time>
      </trkpt>
      <trkpt lat="42.89888" lon="-0.09759">
        <ele>1314</ele>
        <time>2016-01-20T09:41:31Z</time>
      </trkpt>
      <trkpt lat="42.89878" lon="-0.09768">
        <ele>1318</ele>
        <time>2016-01-20T09:41:47Z</time>
      </trkpt>
      <trkpt lat="42.89871" lon="-0.09776">
        <ele>1314</ele>
        <time>2016-01-20T09:42:49Z</time>
      </trkpt>
      <trkpt lat="42.89862" lon="-0.09782">
        <ele>1315</ele>
        <time>2016-01-20T09:42:55Z</time>
      </trkpt>
      <trkpt lat="42.89855" lon="-0.09791">
        <ele>1318</ele>
        <time>2016-01-20T09:43:00Z</time>
      </trkpt>
      <trkpt lat="42.89847" lon="-0.09797">
        <ele>1318</ele>
        <time>2016-01-20T09:43:05Z</time>
      </trkpt>
      <trkpt lat="42.89838" lon="-0.09803">
        <ele>1315</ele>
        <time>2016-01-20T09:43:17Z</time>
      </trkpt>
      <trkpt lat="42.8983" lon="-0.09809">
        <ele>1315</ele>
        <time>2016-01-20T09:43:25Z</time>
      </trkpt>
      <trkpt lat="42.89822" lon="-0.09816">
        <ele>1315</ele>
        <time>2016-01-20T09:43:36Z</time>
      </trkpt>
      <trkpt lat="42.89813" lon="-0.09818">
        <ele>1308</ele>
        <time>2016-01-20T09:43:49Z</time>
      </trkpt>
      <trkpt lat="42.89805" lon="-0.09825">
        <ele>1309</ele>
        <time>2016-01-20T09:44:00Z</time>
      </trkpt>
      <trkpt lat="42.89797" lon="-0.09831">
        <ele>1312</ele>
        <time>2016-01-20T09:44:10Z</time>
      </trkpt>
      <trkpt lat="42.89784" lon="-0.09835">
        <ele>1321</ele>
        <time>2016-01-20T09:44:35Z</time>
      </trkpt>
      <trkpt lat="42.89777" lon="-0.09843">
        <ele>1320</ele>
        <time>2016-01-20T09:44:39Z</time>
      </trkpt>
      <trkpt lat="42.89767" lon="-0.09846">
        <ele>1320</ele>
        <time>2016-01-20T09:44:46Z</time>
      </trkpt>
      <trkpt lat="42.89759" lon="-0.0985">
        <ele>1318</ele>
        <time>2016-01-20T09:44:55Z</time>
      </trkpt>
      <trkpt lat="42.89749" lon="-0.09854">
        <ele>1313</ele>
        <time>2016-01-20T09:45:06Z</time>
      </trkpt>
      <trkpt lat="42.89741" lon="-0.09862">
        <ele>1314</ele>
        <time>2016-01-20T09:45:17Z</time>
      </trkpt>
      <trkpt lat="42.89732" lon="-0.09866">
        <ele>1314</ele>
        <time>2016-01-20T09:45:28Z</time>
      </trkpt>
      <trkpt lat="42.89722" lon="-0.09873">
        <ele>1319</ele>
        <time>2016-01-20T09:49:00Z</time>
      </trkpt>
      <trkpt lat="42.89714" lon="-0.09878">
        <ele>1319</ele>
        <time>2016-01-20T09:49:07Z</time>
      </trkpt>
      <trkpt lat="42.89705" lon="-0.09882">
        <ele>1319</ele>
        <time>2016-01-20T09:49:14Z</time>
      </trkpt>
      <trkpt lat="42.89696" lon="-0.09886">
        <ele>1318</ele>
        <time>2016-01-20T09:49:28Z</time>
      </trkpt>
      <trkpt lat="42.89689" lon="-0.09893">
        <ele>1324</ele>
        <time>2016-01-20T09:49:36Z</time>
      </trkpt>
      <trkpt lat="42.89681" lon="-0.09899">
        <ele>1331</ele>
        <time>2016-01-20T09:49:50Z</time>
      </trkpt>
      <trkpt lat="42.89671" lon="-0.09904">
        <ele>1333</ele>
        <time>2016-01-20T09:50:02Z</time>
      </trkpt>
      <trkpt lat="42.89661" lon="-0.09909">
        <ele>1335</ele>
        <time>2016-01-20T09:50:13Z</time>
      </trkpt>
      <trkpt lat="42.89653" lon="-0.09914">
        <ele>1337</ele>
        <time>2016-01-20T09:50:26Z</time>
      </trkpt>
      <trkpt lat="42.89644" lon="-0.09915">
        <ele>1338</ele>
        <time>2016-01-20T09:50:36Z</time>
      </trkpt>
      <trkpt lat="42.89634" lon="-0.09915">
        <ele>1335</ele>
        <time>2016-01-20T09:50:47Z</time>
      </trkpt>
      <trkpt lat="42.89625" lon="-0.09918">
        <ele>1338</ele>
        <time>2016-01-20T09:50:56Z</time>
      </trkpt>
      <trkpt lat="42.89619" lon="-0.09907">
        <ele>1345</ele>
        <time>2016-01-20T09:51:08Z</time>
      </trkpt>
      <trkpt lat="42.89624" lon="-0.09896">
        <ele>1342</ele>
        <time>2016-01-20T09:51:15Z</time>
      </trkpt>
      <trkpt lat="42.89633" lon="-0.09891">
        <ele>1338</ele>
        <time>2016-01-20T09:51:26Z</time>
      </trkpt>
      <trkpt lat="42.89642" lon="-0.09885">
        <ele>1336</ele>
        <time>2016-01-20T09:51:45Z</time>
      </trkpt>
      <trkpt lat="42.89651" lon="-0.0988">
        <ele>1333</ele>
        <time>2016-01-20T09:51:54Z</time>
      </trkpt>
      <trkpt lat="42.89658" lon="-0.0987">
        <ele>1333</ele>
        <time>2016-01-20T09:52:23Z</time>
      </trkpt>
      <trkpt lat="42.89664" lon="-0.0986">
        <ele>1337</ele>
        <time>2016-01-20T09:52:31Z</time>
      </trkpt>
      <trkpt lat="42.89674" lon="-0.09855">
        <ele>1342</ele>
        <time>2016-01-20T09:52:38Z</time>
      </trkpt>
      <trkpt lat="42.89681" lon="-0.09846">
        <ele>1349</ele>
        <time>2016-01-20T09:52:53Z</time>
      </trkpt>
      <trkpt lat="42.89688" lon="-0.09837">
        <ele>1352</ele>
        <time>2016-01-20T09:53:04Z</time>
      </trkpt>
      <trkpt lat="42.89691" lon="-0.09825">
        <ele>1348</ele>
        <time>2016-01-20T09:53:11Z</time>
      </trkpt>
      <trkpt lat="42.89701" lon="-0.09821">
        <ele>1351</ele>
        <time>2016-01-20T09:53:21Z</time>
      </trkpt>
      <trkpt lat="42.89694" lon="-0.0981">
        <ele>1358</ele>
        <time>2016-01-20T09:53:40Z</time>
      </trkpt>
      <trkpt lat="42.89708" lon="-0.09812">
        <ele>1359</ele>
        <time>2016-01-20T10:02:30Z</time>
      </trkpt>
      <trkpt lat="42.89714" lon="-0.09803">
        <ele>1356</ele>
        <time>2016-01-20T10:02:59Z</time>
      </trkpt>
      <trkpt lat="42.89722" lon="-0.09797">
        <ele>1356</ele>
        <time>2016-01-20T10:03:18Z</time>
      </trkpt>
      <trkpt lat="42.89727" lon="-0.09786">
        <ele>1360</ele>
        <time>2016-01-20T10:03:43Z</time>
      </trkpt>
      <trkpt lat="42.8973" lon="-0.09774">
        <ele>1347</ele>
        <time>2016-01-20T10:04:24Z</time>
      </trkpt>
      <trkpt lat="42.89738" lon="-0.09766">
        <ele>1346</ele>
        <time>2016-01-20T10:04:33Z</time>
      </trkpt>
      <trkpt lat="42.89746" lon="-0.09758">
        <ele>1351</ele>
        <time>2016-01-20T10:04:45Z</time>
      </trkpt>
      <trkpt lat="42.89752" lon="-0.09748">
        <ele>1350</ele>
        <time>2016-01-20T10:04:59Z</time>
      </trkpt>
      <trkpt lat="42.89758" lon="-0.09739">
        <ele>1357</ele>
        <time>2016-01-20T10:05:18Z</time>
      </trkpt>
      <trkpt lat="42.89763" lon="-0.09727">
        <ele>1358</ele>
        <time>2016-01-20T10:05:30Z</time>
      </trkpt>
      <trkpt lat="42.89771" lon="-0.0972">
        <ele>1356</ele>
        <time>2016-01-20T10:05:49Z</time>
      </trkpt>
      <trkpt lat="42.89774" lon="-0.09708">
        <ele>1352</ele>
        <time>2016-01-20T10:06:01Z</time>
      </trkpt>
      <trkpt lat="42.89782" lon="-0.097">
        <ele>1356</ele>
        <time>2016-01-20T10:06:14Z</time>
      </trkpt>
      <trkpt lat="42.8979" lon="-0.09691">
        <ele>1364</ele>
        <time>2016-01-20T10:06:31Z</time>
      </trkpt>
      <trkpt lat="42.89798" lon="-0.09684">
        <ele>1365</ele>
        <time>2016-01-20T10:06:43Z</time>
      </trkpt>
      <trkpt lat="42.89802" lon="-0.09673">
        <ele>1368</ele>
        <time>2016-01-20T10:06:58Z</time>
      </trkpt>
      <trkpt lat="42.89809" lon="-0.09664">
        <ele>1366</ele>
        <time>2016-01-20T10:07:08Z</time>
      </trkpt>
      <trkpt lat="42.89815" lon="-0.09655">
        <ele>1369</ele>
        <time>2016-01-20T10:07:20Z</time>
      </trkpt>
      <trkpt lat="42.89817" lon="-0.09642">
        <ele>1368</ele>
        <time>2016-01-20T10:07:53Z</time>
      </trkpt>
      <trkpt lat="42.89824" lon="-0.09631">
        <ele>1364</ele>
        <time>2016-01-20T10:08:01Z</time>
      </trkpt>
      <trkpt lat="42.89829" lon="-0.09619">
        <ele>1365</ele>
        <time>2016-01-20T10:08:11Z</time>
      </trkpt>
      <trkpt lat="42.89837" lon="-0.09613">
        <ele>1363</ele>
        <time>2016-01-20T10:08:20Z</time>
      </trkpt>
      <trkpt lat="42.89845" lon="-0.09606">
        <ele>1367</ele>
        <time>2016-01-20T10:08:38Z</time>
      </trkpt>
      <trkpt lat="42.89853" lon="-0.09597">
        <ele>1375</ele>
        <time>2016-01-20T10:09:04Z</time>
      </trkpt>
      <trkpt lat="42.8986" lon="-0.09587">
        <ele>1381</ele>
        <time>2016-01-20T10:09:12Z</time>
      </trkpt>
      <trkpt lat="42.89866" lon="-0.09578">
        <ele>1379</ele>
        <time>2016-01-20T10:09:23Z</time>
      </trkpt>
      <trkpt lat="42.89875" lon="-0.09572">
        <ele>1383</ele>
        <time>2016-01-20T10:09:35Z</time>
      </trkpt>
      <trkpt lat="42.89883" lon="-0.09565">
        <ele>1379</ele>
        <time>2016-01-20T10:09:47Z</time>
      </trkpt>
      <trkpt lat="42.89885" lon="-0.09553">
        <ele>1381</ele>
        <time>2016-01-20T10:10:14Z</time>
      </trkpt>
      <trkpt lat="42.8989" lon="-0.09541">
        <ele>1385</ele>
        <time>2016-01-20T10:10:24Z</time>
      </trkpt>
      <trkpt lat="42.89898" lon="-0.09534">
        <ele>1388</ele>
        <time>2016-01-20T10:10:34Z</time>
      </trkpt>
      <trkpt lat="42.89888" lon="-0.09539">
        <ele>1393</ele>
        <time>2016-01-20T10:11:16Z</time>
      </trkpt>
      <trkpt lat="42.8988" lon="-0.09547">
        <ele>1393</ele>
        <time>2016-01-20T10:11:28Z</time>
      </trkpt>
      <trkpt lat="42.89871" lon="-0.09546">
        <ele>1390</ele>
        <time>2016-01-20T10:11:41Z</time>
      </trkpt>
      <trkpt lat="42.89862" lon="-0.09552">
        <ele>1391</ele>
        <time>2016-01-20T10:11:53Z</time>
      </trkpt>
      <trkpt lat="42.89853" lon="-0.09555">
        <ele>1394</ele>
        <time>2016-01-20T10:12:10Z</time>
      </trkpt>
      <trkpt lat="42.89845" lon="-0.0956">
        <ele>1396</ele>
        <time>2016-01-20T10:12:20Z</time>
      </trkpt>
      <trkpt lat="42.89837" lon="-0.09564">
        <ele>1394</ele>
        <time>2016-01-20T10:12:32Z</time>
      </trkpt>
      <trkpt lat="42.89828" lon="-0.09573">
        <ele>1400</ele>
        <time>2016-01-20T10:12:40Z</time>
      </trkpt>
      <trkpt lat="42.89819" lon="-0.09576">
        <ele>1400</ele>
        <time>2016-01-20T10:12:59Z</time>
      </trkpt>
      <trkpt lat="42.89809" lon="-0.09574">
        <ele>1398</ele>
        <time>2016-01-20T10:13:10Z</time>
      </trkpt>
      <trkpt lat="42.898" lon="-0.09578">
        <ele>1397</ele>
        <time>2016-01-20T10:13:28Z</time>
      </trkpt>
      <trkpt lat="42.8979" lon="-0.09579">
        <ele>1396</ele>
        <time>2016-01-20T10:13:43Z</time>
      </trkpt>
      <trkpt lat="42.89781" lon="-0.09586">
        <ele>1402</ele>
        <time>2016-01-20T10:13:54Z</time>
      </trkpt>
      <trkpt lat="42.89778" lon="-0.09598">
        <ele>1409</ele>
        <time>2016-01-20T10:14:09Z</time>
      </trkpt>
      <trkpt lat="42.89767" lon="-0.09603">
        <ele>1409</ele>
        <time>2016-01-20T10:14:29Z</time>
      </trkpt>
      <trkpt lat="42.8976" lon="-0.09611">
        <ele>1407</ele>
        <time>2016-01-20T10:14:38Z</time>
      </trkpt>
      <trkpt lat="42.89749" lon="-0.09623">
        <ele>1409</ele>
        <time>2016-01-20T10:15:10Z</time>
      </trkpt>
      <trkpt lat="42.89742" lon="-0.09631">
        <ele>1411</ele>
        <time>2016-01-20T10:15:16Z</time>
      </trkpt>
      <trkpt lat="42.89733" lon="-0.09635">
        <ele>1405</ele>
        <time>2016-01-20T10:15:28Z</time>
      </trkpt>
      <trkpt lat="42.89725" lon="-0.09641">
        <ele>1408</ele>
        <time>2016-01-20T10:15:42Z</time>
      </trkpt>
      <trkpt lat="42.89717" lon="-0.09647">
        <ele>1411</ele>
        <time>2016-01-20T10:15:53Z</time>
      </trkpt>
      <trkpt lat="42.89711" lon="-0.09658">
        <ele>1423</ele>
        <time>2016-01-20T10:16:58Z</time>
      </trkpt>
      <trkpt lat="42.89703" lon="-0.09664">
        <ele>1419</ele>
        <time>2016-01-20T10:17:11Z</time>
      </trkpt>
      <trkpt lat="42.89695" lon="-0.09667">
        <ele>1417</ele>
        <time>2016-01-20T10:17:25Z</time>
      </trkpt>
      <trkpt lat="42.89685" lon="-0.09669">
        <ele>1418</ele>
        <time>2016-01-20T10:17:41Z</time>
      </trkpt>
      <trkpt lat="42.89679" lon="-0.09678">
        <ele>1418</ele>
        <time>2016-01-20T10:17:50Z</time>
      </trkpt>
      <trkpt lat="42.89671" lon="-0.09683">
        <ele>1420</ele>
        <time>2016-01-20T10:18:12Z</time>
      </trkpt>
      <trkpt lat="42.89662" lon="-0.0969">
        <ele>1419</ele>
        <time>2016-01-20T10:18:35Z</time>
      </trkpt>
      <trkpt lat="42.89653" lon="-0.09693">
        <ele>1420</ele>
        <time>2016-01-20T10:18:43Z</time>
      </trkpt>
      <trkpt lat="42.89643" lon="-0.09695">
        <ele>1422</ele>
        <time>2016-01-20T10:18:53Z</time>
      </trkpt>
      <trkpt lat="42.89636" lon="-0.09702">
        <ele>1424</ele>
        <time>2016-01-20T10:19:06Z</time>
      </trkpt>
      <trkpt lat="42.89627" lon="-0.09706">
        <ele>1425</ele>
        <time>2016-01-20T10:19:18Z</time>
      </trkpt>
      <trkpt lat="42.89618" lon="-0.09709">
        <ele>1421</ele>
        <time>2016-01-20T10:19:33Z</time>
      </trkpt>
      <trkpt lat="42.8961" lon="-0.09714">
        <ele>1428</ele>
        <time>2016-01-20T10:19:45Z</time>
      </trkpt>
      <trkpt lat="42.89601" lon="-0.09718">
        <ele>1432</ele>
        <time>2016-01-20T10:20:04Z</time>
      </trkpt>
      <trkpt lat="42.89592" lon="-0.09723">
        <ele>1436</ele>
        <time>2016-01-20T10:20:25Z</time>
      </trkpt>
      <trkpt lat="42.89582" lon="-0.09721">
        <ele>1432</ele>
        <time>2016-01-20T10:20:39Z</time>
      </trkpt>
      <trkpt lat="42.89572" lon="-0.09722">
        <ele>1433</ele>
        <time>2016-01-20T10:20:53Z</time>
      </trkpt>
      <trkpt lat="42.89563" lon="-0.09728">
        <ele>1432</ele>
        <time>2016-01-20T10:21:04Z</time>
      </trkpt>
      <trkpt lat="42.89554" lon="-0.09733">
        <ele>1435</ele>
        <time>2016-01-20T10:21:19Z</time>
      </trkpt>
      <trkpt lat="42.89548" lon="-0.09723">
        <ele>1435</ele>
        <time>2016-01-20T10:21:27Z</time>
      </trkpt>
      <trkpt lat="42.89539" lon="-0.09727">
        <ele>1434</ele>
        <time>2016-01-20T10:21:51Z</time>
      </trkpt>
      <trkpt lat="42.8953" lon="-0.09729">
        <ele>1438</ele>
        <time>2016-01-20T10:22:13Z</time>
      </trkpt>
      <trkpt lat="42.89521" lon="-0.09733">
        <ele>1440</ele>
        <time>2016-01-20T10:22:30Z</time>
      </trkpt>
      <trkpt lat="42.89512" lon="-0.09737">
        <ele>1454</ele>
        <time>2016-01-20T10:23:08Z</time>
      </trkpt>
      <trkpt lat="42.89503" lon="-0.09741">
        <ele>1454</ele>
        <time>2016-01-20T10:23:17Z</time>
      </trkpt>
      <trkpt lat="42.89493" lon="-0.09742">
        <ele>1452</ele>
        <time>2016-01-20T10:24:09Z</time>
      </trkpt>
      <trkpt lat="42.89485" lon="-0.09751">
        <ele>1448</ele>
        <time>2016-01-20T10:24:18Z</time>
      </trkpt>
      <trkpt lat="42.89476" lon="-0.09757">
        <ele>1452</ele>
        <time>2016-01-20T10:24:33Z</time>
      </trkpt>
      <trkpt lat="42.89466" lon="-0.09754">
        <ele>1456</ele>
        <time>2016-01-20T10:25:10Z</time>
      </trkpt>
      <trkpt lat="42.89454" lon="-0.09749">
        <ele>1456</ele>
        <time>2016-01-20T10:25:54Z</time>
      </trkpt>
      <trkpt lat="42.89445" lon="-0.09742">
        <ele>1460</ele>
        <time>2016-01-20T10:26:01Z</time>
      </trkpt>
      <trkpt lat="42.89436" lon="-0.09739">
        <ele>1460</ele>
        <time>2016-01-20T10:26:39Z</time>
      </trkpt>
      <trkpt lat="42.89426" lon="-0.09737">
        <ele>1462</ele>
        <time>2016-01-20T10:26:48Z</time>
      </trkpt>
      <trkpt lat="42.89418" lon="-0.09732">
        <ele>1466</ele>
        <time>2016-01-20T10:26:56Z</time>
      </trkpt>
      <trkpt lat="42.89408" lon="-0.09734">
        <ele>1469</ele>
        <time>2016-01-20T10:27:06Z</time>
      </trkpt>
      <trkpt lat="42.89399" lon="-0.09738">
        <ele>1475</ele>
        <time>2016-01-20T10:27:29Z</time>
      </trkpt>
      <trkpt lat="42.89392" lon="-0.0973">
        <ele>1471</ele>
        <time>2016-01-20T10:27:45Z</time>
      </trkpt>
      <trkpt lat="42.89386" lon="-0.0974">
        <ele>1480</ele>
        <time>2016-01-20T10:27:55Z</time>
      </trkpt>
      <trkpt lat="42.89377" lon="-0.09748">
        <ele>1490</ele>
        <time>2016-01-20T10:28:18Z</time>
      </trkpt>
      <trkpt lat="42.89368" lon="-0.09743">
        <ele>1484</ele>
        <time>2016-01-20T10:29:30Z</time>
      </trkpt>
      <trkpt lat="42.89359" lon="-0.09737">
        <ele>1484</ele>
        <time>2016-01-20T10:29:38Z</time>
      </trkpt>
      <trkpt lat="42.8935" lon="-0.09742">
        <ele>1484</ele>
        <time>2016-01-20T10:29:48Z</time>
      </trkpt>
      <trkpt lat="42.89341" lon="-0.09744">
        <ele>1494</ele>
        <time>2016-01-20T10:36:38Z</time>
      </trkpt>
      <trkpt lat="42.89332" lon="-0.09744">
        <ele>1498</ele>
        <time>2016-01-20T10:36:50Z</time>
      </trkpt>
      <trkpt lat="42.89321" lon="-0.09745">
        <ele>1502</ele>
        <time>2016-01-20T10:37:01Z</time>
      </trkpt>
      <trkpt lat="42.89311" lon="-0.09742">
        <ele>1499</ele>
        <time>2016-01-20T10:37:10Z</time>
      </trkpt>
      <trkpt lat="42.89303" lon="-0.09738">
        <ele>1496</ele>
        <time>2016-01-20T10:37:25Z</time>
      </trkpt>
      <trkpt lat="42.89291" lon="-0.09738">
        <ele>1500</ele>
        <time>2016-01-20T10:37:49Z</time>
      </trkpt>
      <trkpt lat="42.89282" lon="-0.09732">
        <ele>1515</ele>
        <time>2016-01-20T10:38:27Z</time>
      </trkpt>
      <trkpt lat="42.89273" lon="-0.09729">
        <ele>1515</ele>
        <time>2016-01-20T10:38:41Z</time>
      </trkpt>
      <trkpt lat="42.89263" lon="-0.09732">
        <ele>1519</ele>
        <time>2016-01-20T10:38:59Z</time>
      </trkpt>
      <trkpt lat="42.8926" lon="-0.0972">
        <ele>1519</ele>
        <time>2016-01-20T10:39:22Z</time>
      </trkpt>
      <trkpt lat="42.89269" lon="-0.09709">
        <ele>1522</ele>
        <time>2016-01-20T10:40:00Z</time>
      </trkpt>
      <trkpt lat="42.89278" lon="-0.09699">
        <ele>1518</ele>
        <time>2016-01-20T10:40:08Z</time>
      </trkpt>
      <trkpt lat="42.89288" lon="-0.097">
        <ele>1520</ele>
        <time>2016-01-20T10:40:25Z</time>
      </trkpt>
      <trkpt lat="42.89296" lon="-0.09693">
        <ele>1526</ele>
        <time>2016-01-20T10:40:45Z</time>
      </trkpt>
      <trkpt lat="42.89305" lon="-0.09692">
        <ele>1525</ele>
        <time>2016-01-20T10:40:57Z</time>
      </trkpt>
      <trkpt lat="42.89304" lon="-0.0968">
        <ele>1527</ele>
        <time>2016-01-20T10:41:12Z</time>
      </trkpt>
      <trkpt lat="42.89312" lon="-0.09674">
        <ele>1525</ele>
        <time>2016-01-20T10:41:47Z</time>
      </trkpt>
      <trkpt lat="42.89316" lon="-0.09664">
        <ele>1524</ele>
        <time>2016-01-20T10:41:53Z</time>
      </trkpt>
      <trkpt lat="42.89306" lon="-0.09659">
        <ele>1531</ele>
        <time>2016-01-20T10:42:41Z</time>
      </trkpt>
      <trkpt lat="42.89296" lon="-0.0966">
        <ele>1539</ele>
        <time>2016-01-20T10:43:03Z</time>
      </trkpt>
      <trkpt lat="42.89287" lon="-0.09659">
        <ele>1553</ele>
        <time>2016-01-20T10:43:29Z</time>
      </trkpt>
      <trkpt lat="42.89277" lon="-0.09656">
        <ele>1559</ele>
        <time>2016-01-20T10:43:49Z</time>
      </trkpt>
      <trkpt lat="42.8927" lon="-0.09648">
        <ele>1562</ele>
        <time>2016-01-20T10:44:34Z</time>
      </trkpt>
      <trkpt lat="42.89264" lon="-0.09637">
        <ele>1559</ele>
        <time>2016-01-20T10:44:45Z</time>
      </trkpt>
      <trkpt lat="42.89258" lon="-0.09629">
        <ele>1558</ele>
        <time>2016-01-20T10:44:59Z</time>
      </trkpt>
      <trkpt lat="42.89251" lon="-0.0962">
        <ele>1558</ele>
        <time>2016-01-20T10:45:15Z</time>
      </trkpt>
      <trkpt lat="42.89244" lon="-0.09612">
        <ele>1556</ele>
        <time>2016-01-20T10:45:36Z</time>
      </trkpt>
      <trkpt lat="42.89235" lon="-0.09607">
        <ele>1554</ele>
        <time>2016-01-20T10:46:03Z</time>
      </trkpt>
      <trkpt lat="42.89231" lon="-0.09594">
        <ele>1567</ele>
        <time>2016-01-20T10:46:33Z</time>
      </trkpt>
      <trkpt lat="42.89222" lon="-0.09587">
        <ele>1571</ele>
        <time>2016-01-20T10:46:41Z</time>
      </trkpt>
      <trkpt lat="42.8922" lon="-0.09575">
        <ele>1568</ele>
        <time>2016-01-20T10:46:49Z</time>
      </trkpt>
      <trkpt lat="42.89215" lon="-0.09565">
        <ele>1575</ele>
        <time>2016-01-20T10:47:14Z</time>
      </trkpt>
      <trkpt lat="42.89214" lon="-0.09552">
        <ele>1582</ele>
        <time>2016-01-20T10:50:30Z</time>
      </trkpt>
      <trkpt lat="42.89224" lon="-0.09542">
        <ele>1580</ele>
        <time>2016-01-20T10:50:33Z</time>
      </trkpt>
      <trkpt lat="42.89216" lon="-0.09551">
        <ele>1582</ele>
        <time>2016-01-20T10:50:35Z</time>
      </trkpt>
      <trkpt lat="42.8921" lon="-0.09541">
        <ele>1582</ele>
        <time>2016-01-20T10:52:53Z</time>
      </trkpt>
      <trkpt lat="42.89208" lon="-0.09529">
        <ele>1583</ele>
        <time>2016-01-20T10:53:06Z</time>
      </trkpt>
      <trkpt lat="42.89199" lon="-0.09523">
        <ele>1588</ele>
        <time>2016-01-20T10:53:18Z</time>
      </trkpt>
      <trkpt lat="42.89198" lon="-0.09511">
        <ele>1591</ele>
        <time>2016-01-20T10:53:33Z</time>
      </trkpt>
      <trkpt lat="42.89193" lon="-0.09499">
        <ele>1593</ele>
        <time>2016-01-20T10:53:53Z</time>
      </trkpt>
      <trkpt lat="42.89194" lon="-0.09487">
        <ele>1600</ele>
        <time>2016-01-20T10:54:26Z</time>
      </trkpt>
      <trkpt lat="42.89189" lon="-0.09474">
        <ele>1597</ele>
        <time>2016-01-20T10:54:36Z</time>
      </trkpt>
      <trkpt lat="42.89189" lon="-0.09461">
        <ele>1602</ele>
        <time>2016-01-20T10:54:56Z</time>
      </trkpt>
      <trkpt lat="42.89185" lon="-0.0945">
        <ele>1608</ele>
        <time>2016-01-20T10:55:12Z</time>
      </trkpt>
      <trkpt lat="42.89186" lon="-0.09438">
        <ele>1609</ele>
        <time>2016-01-20T10:55:30Z</time>
      </trkpt>
      <trkpt lat="42.89181" lon="-0.09428">
        <ele>1608</ele>
        <time>2016-01-20T10:55:49Z</time>
      </trkpt>
      <trkpt lat="42.89188" lon="-0.09417">
        <ele>1611</ele>
        <time>2016-01-20T10:56:28Z</time>
      </trkpt>
      <trkpt lat="42.89197" lon="-0.09417">
        <ele>1613</ele>
        <time>2016-01-20T10:56:38Z</time>
      </trkpt>
      <trkpt lat="42.89206" lon="-0.09423">
        <ele>1616</ele>
        <time>2016-01-20T10:56:55Z</time>
      </trkpt>
      <trkpt lat="42.89215" lon="-0.09425">
        <ele>1619</ele>
        <time>2016-01-20T10:57:36Z</time>
      </trkpt>
      <trkpt lat="42.89223" lon="-0.09432">
        <ele>1624</ele>
        <time>2016-01-20T10:57:43Z</time>
      </trkpt>
      <trkpt lat="42.89229" lon="-0.09442">
        <ele>1623</ele>
        <time>2016-01-20T10:57:55Z</time>
      </trkpt>
      <trkpt lat="42.89238" lon="-0.09447">
        <ele>1624</ele>
        <time>2016-01-20T10:58:11Z</time>
      </trkpt>
      <trkpt lat="42.89248" lon="-0.09446">
        <ele>1622</ele>
        <time>2016-01-20T10:58:24Z</time>
      </trkpt>
      <trkpt lat="42.89254" lon="-0.09456">
        <ele>1627</ele>
        <time>2016-01-20T10:58:39Z</time>
      </trkpt>
      <trkpt lat="42.89255" lon="-0.09468">
        <ele>1630</ele>
        <time>2016-01-20T10:59:20Z</time>
      </trkpt>
      <trkpt lat="42.89261" lon="-0.09478">
        <ele>1630</ele>
        <time>2016-01-20T11:00:01Z</time>
      </trkpt>
      <trkpt lat="42.89266" lon="-0.09468">
        <ele>1642</ele>
        <time>2016-01-20T11:01:51Z</time>
      </trkpt>
      <trkpt lat="42.89269" lon="-0.09456">
        <ele>1640</ele>
        <time>2016-01-20T11:02:04Z</time>
      </trkpt>
      <trkpt lat="42.89269" lon="-0.09443">
        <ele>1644</ele>
        <time>2016-01-20T11:02:25Z</time>
      </trkpt>
      <trkpt lat="42.89265" lon="-0.0943">
        <ele>1650</ele>
        <time>2016-01-20T11:02:39Z</time>
      </trkpt>
      <trkpt lat="42.89266" lon="-0.09417">
        <ele>1651</ele>
        <time>2016-01-20T11:03:22Z</time>
      </trkpt>
      <trkpt lat="42.89262" lon="-0.09404">
        <ele>1654</ele>
        <time>2016-01-20T11:03:36Z</time>
      </trkpt>
      <trkpt lat="42.89261" lon="-0.09392">
        <ele>1653</ele>
        <time>2016-01-20T11:03:48Z</time>
      </trkpt>
      <trkpt lat="42.8926" lon="-0.09379">
        <ele>1659</ele>
        <time>2016-01-20T11:04:16Z</time>
      </trkpt>
      <trkpt lat="42.89257" lon="-0.09367">
        <ele>1662</ele>
        <time>2016-01-20T11:04:36Z</time>
      </trkpt>
      <trkpt lat="42.89253" lon="-0.09356">
        <ele>1664</ele>
        <time>2016-01-20T11:05:03Z</time>
      </trkpt>
      <trkpt lat="42.89252" lon="-0.09342">
        <ele>1665</ele>
        <time>2016-01-20T11:05:21Z</time>
      </trkpt>
      <trkpt lat="42.89248" lon="-0.09331">
        <ele>1667</ele>
        <time>2016-01-20T11:05:39Z</time>
      </trkpt>
      <trkpt lat="42.89244" lon="-0.09319">
        <ele>1667</ele>
        <time>2016-01-20T11:05:49Z</time>
      </trkpt>
      <trkpt lat="42.89239" lon="-0.09309">
        <ele>1669</ele>
        <time>2016-01-20T11:05:59Z</time>
      </trkpt>
      <trkpt lat="42.89236" lon="-0.09297">
        <ele>1672</ele>
        <time>2016-01-20T11:06:34Z</time>
      </trkpt>
      <trkpt lat="42.8924" lon="-0.09285">
        <ele>1672</ele>
        <time>2016-01-20T11:08:57Z</time>
      </trkpt>
      <trkpt lat="42.89233" lon="-0.09277">
        <ele>1679</ele>
        <time>2016-01-20T11:09:15Z</time>
      </trkpt>
      <trkpt lat="42.89228" lon="-0.09267">
        <ele>1684</ele>
        <time>2016-01-20T11:10:00Z</time>
      </trkpt>
      <trkpt lat="42.8923" lon="-0.09254">
        <ele>1677</ele>
        <time>2016-01-20T11:11:55Z</time>
      </trkpt>
      <trkpt lat="42.89226" lon="-0.09243">
        <ele>1681</ele>
        <time>2016-01-20T11:13:08Z</time>
      </trkpt>
      <trkpt lat="42.89229" lon="-0.09231">
        <ele>1675</ele>
        <time>2016-01-20T11:14:06Z</time>
      </trkpt>
      <trkpt lat="42.89226" lon="-0.09218">
        <ele>1674</ele>
        <time>2016-01-20T11:14:20Z</time>
      </trkpt>
      <trkpt lat="42.89221" lon="-0.09207">
        <ele>1678</ele>
        <time>2016-01-20T11:14:35Z</time>
      </trkpt>
      <trkpt lat="42.89216" lon="-0.09196">
        <ele>1679</ele>
        <time>2016-01-20T11:15:16Z</time>
      </trkpt>
      <trkpt lat="42.8921" lon="-0.09185">
        <ele>1682</ele>
        <time>2016-01-20T11:15:59Z</time>
      </trkpt>
      <trkpt lat="42.89203" lon="-0.09174">
        <ele>1677</ele>
        <time>2016-01-20T11:16:27Z</time>
      </trkpt>
      <trkpt lat="42.89203" lon="-0.09161">
        <ele>1675</ele>
        <time>2016-01-20T11:17:18Z</time>
      </trkpt>
      <trkpt lat="42.89209" lon="-0.09174">
        <ele>1681</ele>
        <time>2016-01-20T11:18:31Z</time>
      </trkpt>
      <trkpt lat="42.89214" lon="-0.09184">
        <ele>1678</ele>
        <time>2016-01-20T11:18:38Z</time>
      </trkpt>
      <trkpt lat="42.89226" lon="-0.09193">
        <ele>1678</ele>
        <time>2016-01-20T11:19:56Z</time>
      </trkpt>
      <trkpt lat="42.89215" lon="-0.0918">
        <ele>1675</ele>
        <time>2016-01-20T11:20:19Z</time>
      </trkpt>
      <trkpt lat="42.8921" lon="-0.09169">
        <ele>1671</ele>
        <time>2016-01-20T11:20:33Z</time>
      </trkpt>
      <trkpt lat="42.89219" lon="-0.09175">
        <ele>1678</ele>
        <time>2016-01-20T12:18:45Z</time>
      </trkpt>
      <trkpt lat="42.89224" lon="-0.09185">
        <ele>1678</ele>
        <time>2016-01-20T12:18:56Z</time>
      </trkpt>
      <trkpt lat="42.89217" lon="-0.09194">
        <ele>1683</ele>
        <time>2016-01-20T12:19:19Z</time>
      </trkpt>
      <trkpt lat="42.89211" lon="-0.09184">
        <ele>1684</ele>
        <time>2016-01-20T12:19:32Z</time>
      </trkpt>
      <trkpt lat="42.89204" lon="-0.09176">
        <ele>1687</ele>
        <time>2016-01-20T12:19:44Z</time>
      </trkpt>
      <trkpt lat="42.89195" lon="-0.09179">
        <ele>1692</ele>
        <time>2016-01-20T12:19:59Z</time>
      </trkpt>
      <trkpt lat="42.8919" lon="-0.09167">
        <ele>1685</ele>
        <time>2016-01-20T12:26:24Z</time>
      </trkpt>
      <trkpt lat="42.89187" lon="-0.09155">
        <ele>1685</ele>
        <time>2016-01-20T12:26:31Z</time>
      </trkpt>
      <trkpt lat="42.89187" lon="-0.09141">
        <ele>1686</ele>
        <time>2016-01-20T12:26:39Z</time>
      </trkpt>
      <trkpt lat="42.89177" lon="-0.09136">
        <ele>1683</ele>
        <time>2016-01-20T12:26:59Z</time>
      </trkpt>
      <trkpt lat="42.89171" lon="-0.09126">
        <ele>1681</ele>
        <time>2016-01-20T12:27:08Z</time>
      </trkpt>
      <trkpt lat="42.89167" lon="-0.09115">
        <ele>1686</ele>
        <time>2016-01-20T12:27:16Z</time>
      </trkpt>
      <trkpt lat="42.89164" lon="-0.09103">
        <ele>1684</ele>
        <time>2016-01-20T12:27:23Z</time>
      </trkpt>
      <trkpt lat="42.89153" lon="-0.09103">
        <ele>1684</ele>
        <time>2016-01-20T12:27:32Z</time>
      </trkpt>
      <trkpt lat="42.89145" lon="-0.09097">
        <ele>1681</ele>
        <time>2016-01-20T12:27:41Z</time>
      </trkpt>
      <trkpt lat="42.89139" lon="-0.09087">
        <ele>1687</ele>
        <time>2016-01-20T12:27:52Z</time>
      </trkpt>
      <trkpt lat="42.89131" lon="-0.09082">
        <ele>1683</ele>
        <time>2016-01-20T12:28:13Z</time>
      </trkpt>
      <trkpt lat="42.89121" lon="-0.09078">
        <ele>1680</ele>
        <time>2016-01-20T12:28:24Z</time>
      </trkpt>
      <trkpt lat="42.89111" lon="-0.0908">
        <ele>1673</ele>
        <time>2016-01-20T12:29:22Z</time>
      </trkpt>
      <trkpt lat="42.89102" lon="-0.09076">
        <ele>1673</ele>
        <time>2016-01-20T12:29:28Z</time>
      </trkpt>
      <trkpt lat="42.89095" lon="-0.09069">
        <ele>1671</ele>
        <time>2016-01-20T12:29:39Z</time>
      </trkpt>
      <trkpt lat="42.89084" lon="-0.09071">
        <ele>1668</ele>
        <time>2016-01-20T12:29:47Z</time>
      </trkpt>
      <trkpt lat="42.89075" lon="-0.0907">
        <ele>1670</ele>
        <time>2016-01-20T12:29:56Z</time>
      </trkpt>
      <trkpt lat="42.89065" lon="-0.09068">
        <ele>1670</ele>
        <time>2016-01-20T12:30:07Z</time>
      </trkpt>
      <trkpt lat="42.89056" lon="-0.09064">
        <ele>1671</ele>
        <time>2016-01-20T12:31:02Z</time>
      </trkpt>
      <trkpt lat="42.89047" lon="-0.09068">
        <ele>1667</ele>
        <time>2016-01-20T12:31:10Z</time>
      </trkpt>
      <trkpt lat="42.89039" lon="-0.09074">
        <ele>1665</ele>
        <time>2016-01-20T12:32:28Z</time>
      </trkpt>
      <trkpt lat="42.89032" lon="-0.09083">
        <ele>1663</ele>
        <time>2016-01-20T12:32:40Z</time>
      </trkpt>
      <trkpt lat="42.89025" lon="-0.09094">
        <ele>1665</ele>
        <time>2016-01-20T12:32:49Z</time>
      </trkpt>
      <trkpt lat="42.89019" lon="-0.09103">
        <ele>1663</ele>
        <time>2016-01-20T12:32:58Z</time>
      </trkpt>
      <trkpt lat="42.89014" lon="-0.09113">
        <ele>1663</ele>
        <time>2016-01-20T12:33:10Z</time>
      </trkpt>
      <trkpt lat="42.89005" lon="-0.0912">
        <ele>1659</ele>
        <time>2016-01-20T12:33:26Z</time>
      </trkpt>
      <trkpt lat="42.88999" lon="-0.0913">
        <ele>1664</ele>
        <time>2016-01-20T12:33:42Z</time>
      </trkpt>
      <trkpt lat="42.88995" lon="-0.09141">
        <ele>1665</ele>
        <time>2016-01-20T12:33:54Z</time>
      </trkpt>
      <trkpt lat="42.88986" lon="-0.09148">
        <ele>1667</ele>
        <time>2016-01-20T12:34:04Z</time>
      </trkpt>
      <trkpt lat="42.88976" lon="-0.09148">
        <ele>1665</ele>
        <time>2016-01-20T12:34:14Z</time>
      </trkpt>
      <trkpt lat="42.88967" lon="-0.09147">
        <ele>1663</ele>
        <time>2016-01-20T12:34:27Z</time>
      </trkpt>
      <trkpt lat="42.88962" lon="-0.09159">
        <ele>1659</ele>
        <time>2016-01-20T12:34:37Z</time>
      </trkpt>
      <trkpt lat="42.88957" lon="-0.09171">
        <ele>1660</ele>
        <time>2016-01-20T12:34:49Z</time>
      </trkpt>
      <trkpt lat="42.88949" lon="-0.09178">
        <ele>1658</ele>
        <time>2016-01-20T12:39:27Z</time>
      </trkpt>
      <trkpt lat="42.88944" lon="-0.09189">
        <ele>1658</ele>
        <time>2016-01-20T12:39:39Z</time>
      </trkpt>
      <trkpt lat="42.88937" lon="-0.09197">
        <ele>1662</ele>
        <time>2016-01-20T12:39:51Z</time>
      </trkpt>
      <trkpt lat="42.88929" lon="-0.09205">
        <ele>1661</ele>
        <time>2016-01-20T12:40:01Z</time>
      </trkpt>
      <trkpt lat="42.88923" lon="-0.09214">
        <ele>1663</ele>
        <time>2016-01-20T12:40:11Z</time>
      </trkpt>
      <trkpt lat="42.88914" lon="-0.09218">
        <ele>1664</ele>
        <time>2016-01-20T12:40:22Z</time>
      </trkpt>
      <trkpt lat="42.88906" lon="-0.09225">
        <ele>1663</ele>
        <time>2016-01-20T12:40:42Z</time>
      </trkpt>
      <trkpt lat="42.88898" lon="-0.09231">
        <ele>1664</ele>
        <time>2016-01-20T12:40:53Z</time>
      </trkpt>
      <trkpt lat="42.88891" lon="-0.09238">
        <ele>1664</ele>
        <time>2016-01-20T12:41:02Z</time>
      </trkpt>
      <trkpt lat="42.88883" lon="-0.09244">
        <ele>1662</ele>
        <time>2016-01-20T12:41:11Z</time>
      </trkpt>
      <trkpt lat="42.88875" lon="-0.0925">
        <ele>1661</ele>
        <time>2016-01-20T12:41:17Z</time>
      </trkpt>
      <trkpt lat="42.88867" lon="-0.09257">
        <ele>1660</ele>
        <time>2016-01-20T12:41:55Z</time>
      </trkpt>
      <trkpt lat="42.88858" lon="-0.09261">
        <ele>1660</ele>
        <time>2016-01-20T12:42:04Z</time>
      </trkpt>
      <trkpt lat="42.88848" lon="-0.09264">
        <ele>1661</ele>
        <time>2016-01-20T12:42:14Z</time>
      </trkpt>
      <trkpt lat="42.8884" lon="-0.09269">
        <ele>1660</ele>
        <time>2016-01-20T12:42:35Z</time>
      </trkpt>
      <trkpt lat="42.88831" lon="-0.09271">
        <ele>1657</ele>
        <time>2016-01-20T12:43:02Z</time>
      </trkpt>
      <trkpt lat="42.88822" lon="-0.09273">
        <ele>1653</ele>
        <time>2016-01-20T12:43:10Z</time>
      </trkpt>
      <trkpt lat="42.88811" lon="-0.09279">
        <ele>1655</ele>
        <time>2016-01-20T12:43:16Z</time>
      </trkpt>
      <trkpt lat="42.88803" lon="-0.09287">
        <ele>1649</ele>
        <time>2016-01-20T12:43:26Z</time>
      </trkpt>
      <trkpt lat="42.88792" lon="-0.09288">
        <ele>1652</ele>
        <time>2016-01-20T12:43:35Z</time>
      </trkpt>
      <trkpt lat="42.88784" lon="-0.09282">
        <ele>1650</ele>
        <time>2016-01-20T12:43:45Z</time>
      </trkpt>
      <trkpt lat="42.88775" lon="-0.09287">
        <ele>1652</ele>
        <time>2016-01-20T12:43:52Z</time>
      </trkpt>
      <trkpt lat="42.88766" lon="-0.09287">
        <ele>1650</ele>
        <time>2016-01-20T12:44:05Z</time>
      </trkpt>
      <trkpt lat="42.88761" lon="-0.09276">
        <ele>1653</ele>
        <time>2016-01-20T12:44:40Z</time>
      </trkpt>
      <trkpt lat="42.88751" lon="-0.09278">
        <ele>1651</ele>
        <time>2016-01-20T12:45:00Z</time>
      </trkpt>
      <trkpt lat="42.88743" lon="-0.09288">
        <ele>1656</ele>
        <time>2016-01-20T12:46:01Z</time>
      </trkpt>
      <trkpt lat="42.88738" lon="-0.09299">
        <ele>1657</ele>
        <time>2016-01-20T12:47:11Z</time>
      </trkpt>
      <trkpt lat="42.88738" lon="-0.09312">
        <ele>1660</ele>
        <time>2016-01-20T12:47:20Z</time>
      </trkpt>
      <trkpt lat="42.88739" lon="-0.09325">
        <ele>1659</ele>
        <time>2016-01-20T12:47:35Z</time>
      </trkpt>
      <trkpt lat="42.88739" lon="-0.09339">
        <ele>1657</ele>
        <time>2016-01-20T12:47:46Z</time>
      </trkpt>
      <trkpt lat="42.88741" lon="-0.09352">
        <ele>1658</ele>
        <time>2016-01-20T12:47:57Z</time>
      </trkpt>
      <trkpt lat="42.88744" lon="-0.09364">
        <ele>1659</ele>
        <time>2016-01-20T12:48:07Z</time>
      </trkpt>
      <trkpt lat="42.88745" lon="-0.09376">
        <ele>1658</ele>
        <time>2016-01-20T12:48:22Z</time>
      </trkpt>
      <trkpt lat="42.88744" lon="-0.09388">
        <ele>1656</ele>
        <time>2016-01-20T12:48:34Z</time>
      </trkpt>
      <trkpt lat="42.88745" lon="-0.09401">
        <ele>1657</ele>
        <time>2016-01-20T12:48:44Z</time>
      </trkpt>
      <trkpt lat="42.88745" lon="-0.09414">
        <ele>1651</ele>
        <time>2016-01-20T12:49:04Z</time>
      </trkpt>
      <trkpt lat="42.88744" lon="-0.09426">
        <ele>1650</ele>
        <time>2016-01-20T12:49:13Z</time>
      </trkpt>
      <trkpt lat="42.88744" lon="-0.09439">
        <ele>1647</ele>
        <time>2016-01-20T12:49:28Z</time>
      </trkpt>
      <trkpt lat="42.88744" lon="-0.09453">
        <ele>1646</ele>
        <time>2016-01-20T12:49:37Z</time>
      </trkpt>
      <trkpt lat="42.88744" lon="-0.09466">
        <ele>1645</ele>
        <time>2016-01-20T12:49:45Z</time>
      </trkpt>
      <trkpt lat="42.88745" lon="-0.09478">
        <ele>1645</ele>
        <time>2016-01-20T12:49:57Z</time>
      </trkpt>
      <trkpt lat="42.88748" lon="-0.09491">
        <ele>1647</ele>
        <time>2016-01-20T12:50:08Z</time>
      </trkpt>
      <trkpt lat="42.8875" lon="-0.09504">
        <ele>1646</ele>
        <time>2016-01-20T12:50:21Z</time>
      </trkpt>
      <trkpt lat="42.88755" lon="-0.09514">
        <ele>1648</ele>
        <time>2016-01-20T12:50:33Z</time>
      </trkpt>
      <trkpt lat="42.88759" lon="-0.09526">
        <ele>1654</ele>
        <time>2016-01-20T12:50:53Z</time>
      </trkpt>
      <trkpt lat="42.88756" lon="-0.09539">
        <ele>1651</ele>
        <time>2016-01-20T12:51:05Z</time>
      </trkpt>
      <trkpt lat="42.88761" lon="-0.0955">
        <ele>1647</ele>
        <time>2016-01-20T12:51:19Z</time>
      </trkpt>
      <trkpt lat="42.88764" lon="-0.09561">
        <ele>1646</ele>
        <time>2016-01-20T12:51:51Z</time>
      </trkpt>
      <trkpt lat="42.88765" lon="-0.09573">
        <ele>1645</ele>
        <time>2016-01-20T12:52:16Z</time>
      </trkpt>
      <trkpt lat="42.88766" lon="-0.09586">
        <ele>1650</ele>
        <time>2016-01-20T12:52:40Z</time>
      </trkpt>
      <trkpt lat="42.88757" lon="-0.09593">
        <ele>1652</ele>
        <time>2016-01-20T12:53:17Z</time>
      </trkpt>
      <trkpt lat="42.88751" lon="-0.09603">
        <ele>1654</ele>
        <time>2016-01-20T12:54:26Z</time>
      </trkpt>
      <trkpt lat="42.88745" lon="-0.09613">
        <ele>1657</ele>
        <time>2016-01-20T12:54:31Z</time>
      </trkpt>
      <trkpt lat="42.8874" lon="-0.09626">
        <ele>1656</ele>
        <time>2016-01-20T12:54:36Z</time>
      </trkpt>
      <trkpt lat="42.88735" lon="-0.09639">
        <ele>1660</ele>
        <time>2016-01-20T12:55:03Z</time>
      </trkpt>
      <trkpt lat="42.8873" lon="-0.09649">
        <ele>1655</ele>
        <time>2016-01-20T12:55:53Z</time>
      </trkpt>
      <trkpt lat="42.88722" lon="-0.09658">
        <ele>1646</ele>
        <time>2016-01-20T12:56:27Z</time>
      </trkpt>
      <trkpt lat="42.8873" lon="-0.09651">
        <ele>1647</ele>
        <time>2016-01-20T12:56:57Z</time>
      </trkpt>
      <trkpt lat="42.88741" lon="-0.09643">
        <ele>1645</ele>
        <time>2016-01-20T12:57:06Z</time>
      </trkpt>
      <trkpt lat="42.88749" lon="-0.09638">
        <ele>1646</ele>
        <time>2016-01-20T12:57:26Z</time>
      </trkpt>
      <trkpt lat="42.88755" lon="-0.09628">
        <ele>1641</ele>
        <time>2016-01-20T12:57:34Z</time>
      </trkpt>
      <trkpt lat="42.88764" lon="-0.09628">
        <ele>1636</ele>
        <time>2016-01-20T12:57:57Z</time>
      </trkpt>
      <trkpt lat="42.88773" lon="-0.09622">
        <ele>1634</ele>
        <time>2016-01-20T12:58:05Z</time>
      </trkpt>
      <trkpt lat="42.88783" lon="-0.0962">
        <ele>1628</ele>
        <time>2016-01-20T12:58:20Z</time>
      </trkpt>
      <trkpt lat="42.88794" lon="-0.09617">
        <ele>1633</ele>
        <time>2016-01-20T12:58:34Z</time>
      </trkpt>
      <trkpt lat="42.88801" lon="-0.0961">
        <ele>1631</ele>
        <time>2016-01-20T12:58:49Z</time>
      </trkpt>
      <trkpt lat="42.88801" lon="-0.09625">
        <ele>1633</ele>
        <time>2016-01-20T12:59:44Z</time>
      </trkpt>
      <trkpt lat="42.88792" lon="-0.09629">
        <ele>1630</ele>
        <time>2016-01-20T13:00:10Z</time>
      </trkpt>
      <trkpt lat="42.88787" lon="-0.09639">
        <ele>1623</ele>
        <time>2016-01-20T13:00:26Z</time>
      </trkpt>
      <trkpt lat="42.88779" lon="-0.09649">
        <ele>1624</ele>
        <time>2016-01-20T13:00:54Z</time>
      </trkpt>
      <trkpt lat="42.88767" lon="-0.09653">
        <ele>1620</ele>
        <time>2016-01-20T13:00:58Z</time>
      </trkpt>
      <trkpt lat="42.88759" lon="-0.09665">
        <ele>1623</ele>
        <time>2016-01-20T13:01:24Z</time>
      </trkpt>
      <trkpt lat="42.88755" lon="-0.09677">
        <ele>1624</ele>
        <time>2016-01-20T13:01:33Z</time>
      </trkpt>
      <trkpt lat="42.88755" lon="-0.09689">
        <ele>1626</ele>
        <time>2016-01-20T13:01:45Z</time>
      </trkpt>
      <trkpt lat="42.88753" lon="-0.09704">
        <ele>1623</ele>
        <time>2016-01-20T13:02:07Z</time>
      </trkpt>
      <trkpt lat="42.88755" lon="-0.09716">
        <ele>1623</ele>
        <time>2016-01-20T13:02:10Z</time>
      </trkpt>
      <trkpt lat="42.88756" lon="-0.0973">
        <ele>1618</ele>
        <time>2016-01-20T13:02:16Z</time>
      </trkpt>
      <trkpt lat="42.88761" lon="-0.09742">
        <ele>1613</ele>
        <time>2016-01-20T13:02:51Z</time>
      </trkpt>
      <trkpt lat="42.88763" lon="-0.09754">
        <ele>1606</ele>
        <time>2016-01-20T13:03:03Z</time>
      </trkpt>
      <trkpt lat="42.88758" lon="-0.09766">
        <ele>1597</ele>
        <time>2016-01-20T13:03:37Z</time>
      </trkpt>
      <trkpt lat="42.88755" lon="-0.09779">
        <ele>1599</ele>
        <time>2016-01-20T13:03:41Z</time>
      </trkpt>
      <trkpt lat="42.8875" lon="-0.0979">
        <ele>1601</ele>
        <time>2016-01-20T13:03:59Z</time>
      </trkpt>
      <trkpt lat="42.88751" lon="-0.09804">
        <ele>1604</ele>
        <time>2016-01-20T13:04:12Z</time>
      </trkpt>
      <trkpt lat="42.8875" lon="-0.0982">
        <ele>1606</ele>
        <time>2016-01-20T13:04:46Z</time>
      </trkpt>
      <trkpt lat="42.88744" lon="-0.0983">
        <ele>1604</ele>
        <time>2016-01-20T13:04:49Z</time>
      </trkpt>
      <trkpt lat="42.88744" lon="-0.09842">
        <ele>1604</ele>
        <time>2016-01-20T13:04:56Z</time>
      </trkpt>
      <trkpt lat="42.88747" lon="-0.09854">
        <ele>1598</ele>
        <time>2016-01-20T13:05:16Z</time>
      </trkpt>
      <trkpt lat="42.88755" lon="-0.0986">
        <ele>1598</ele>
        <time>2016-01-20T13:05:30Z</time>
      </trkpt>
      <trkpt lat="42.88757" lon="-0.09873">
        <ele>1594</ele>
        <time>2016-01-20T13:05:56Z</time>
      </trkpt>
      <trkpt lat="42.88749" lon="-0.09866">
        <ele>1588</ele>
        <time>2016-01-20T13:07:02Z</time>
      </trkpt>
      <trkpt lat="42.88749" lon="-0.09852">
        <ele>1588</ele>
        <time>2016-01-20T13:07:10Z</time>
      </trkpt>
      <trkpt lat="42.8875" lon="-0.09838">
        <ele>1589</ele>
        <time>2016-01-20T13:07:24Z</time>
      </trkpt>
      <trkpt lat="42.88752" lon="-0.09825">
        <ele>1590</ele>
        <time>2016-01-20T13:07:34Z</time>
      </trkpt>
      <trkpt lat="42.88762" lon="-0.09824">
        <ele>1589</ele>
        <time>2016-01-20T13:08:13Z</time>
      </trkpt>
      <trkpt lat="42.88769" lon="-0.09816">
        <ele>1585</ele>
        <time>2016-01-20T13:08:17Z</time>
      </trkpt>
      <trkpt lat="42.88779" lon="-0.0981">
        <ele>1580</ele>
        <time>2016-01-20T13:08:22Z</time>
      </trkpt>
      <trkpt lat="42.88788" lon="-0.09805">
        <ele>1585</ele>
        <time>2016-01-20T13:08:27Z</time>
      </trkpt>
      <trkpt lat="42.88792" lon="-0.09794">
        <ele>1578</ele>
        <time>2016-01-20T13:08:35Z</time>
      </trkpt>
      <trkpt lat="42.88801" lon="-0.09784">
        <ele>1579</ele>
        <time>2016-01-20T13:08:42Z</time>
      </trkpt>
      <trkpt lat="42.88805" lon="-0.09774">
        <ele>1577</ele>
        <time>2016-01-20T13:08:53Z</time>
      </trkpt>
      <trkpt lat="42.88794" lon="-0.09762">
        <ele>1579</ele>
        <time>2016-01-20T13:09:04Z</time>
      </trkpt>
      <trkpt lat="42.88789" lon="-0.09746">
        <ele>1579</ele>
        <time>2016-01-20T13:09:10Z</time>
      </trkpt>
      <trkpt lat="42.88794" lon="-0.09735">
        <ele>1576</ele>
        <time>2016-01-20T13:09:43Z</time>
      </trkpt>
      <trkpt lat="42.88801" lon="-0.09727">
        <ele>1576</ele>
        <time>2016-01-20T13:09:48Z</time>
      </trkpt>
      <trkpt lat="42.88807" lon="-0.09716">
        <ele>1572</ele>
        <time>2016-01-20T13:09:57Z</time>
      </trkpt>
      <trkpt lat="42.88814" lon="-0.0971">
        <ele>1569</ele>
        <time>2016-01-20T13:10:03Z</time>
      </trkpt>
      <trkpt lat="42.88827" lon="-0.09712">
        <ele>1570</ele>
        <time>2016-01-20T13:10:09Z</time>
      </trkpt>
      <trkpt lat="42.88834" lon="-0.09704">
        <ele>1569</ele>
        <time>2016-01-20T13:10:32Z</time>
      </trkpt>
      <trkpt lat="42.88837" lon="-0.09692">
        <ele>1563</ele>
        <time>2016-01-20T13:10:36Z</time>
      </trkpt>
      <trkpt lat="42.88845" lon="-0.09685">
        <ele>1560</ele>
        <time>2016-01-20T13:10:41Z</time>
      </trkpt>
      <trkpt lat="42.88854" lon="-0.09685">
        <ele>1563</ele>
        <time>2016-01-20T13:10:50Z</time>
      </trkpt>
      <trkpt lat="42.88864" lon="-0.09683">
        <ele>1562</ele>
        <time>2016-01-20T13:11:02Z</time>
      </trkpt>
      <trkpt lat="42.88875" lon="-0.09678">
        <ele>1556</ele>
        <time>2016-01-20T13:11:27Z</time>
      </trkpt>
      <trkpt lat="42.88884" lon="-0.09682">
        <ele>1558</ele>
        <time>2016-01-20T13:11:36Z</time>
      </trkpt>
      <trkpt lat="42.88894" lon="-0.09684">
        <ele>1557</ele>
        <time>2016-01-20T13:11:43Z</time>
      </trkpt>
      <trkpt lat="42.88903" lon="-0.0969">
        <ele>1553</ele>
        <time>2016-01-20T13:11:57Z</time>
      </trkpt>
      <trkpt lat="42.88914" lon="-0.09693">
        <ele>1555</ele>
        <time>2016-01-20T13:12:10Z</time>
      </trkpt>
      <trkpt lat="42.88907" lon="-0.09702">
        <ele>1553</ele>
        <time>2016-01-20T13:12:47Z</time>
      </trkpt>
      <trkpt lat="42.88889" lon="-0.0971">
        <ele>1553</ele>
        <time>2016-01-20T13:12:49Z</time>
      </trkpt>
      <trkpt lat="42.8888" lon="-0.09707">
        <ele>1551</ele>
        <time>2016-01-20T13:12:50Z</time>
      </trkpt>
      <trkpt lat="42.88868" lon="-0.09705">
        <ele>1550</ele>
        <time>2016-01-20T13:12:51Z</time>
      </trkpt>
      <trkpt lat="42.88861" lon="-0.09712">
        <ele>1543</ele>
        <time>2016-01-20T13:13:12Z</time>
      </trkpt>
      <trkpt lat="42.88854" lon="-0.0972">
        <ele>1540</ele>
        <time>2016-01-20T13:13:38Z</time>
      </trkpt>
      <trkpt lat="42.88846" lon="-0.09732">
        <ele>1538</ele>
        <time>2016-01-20T13:13:59Z</time>
      </trkpt>
      <trkpt lat="42.88856" lon="-0.09729">
        <ele>1534</ele>
        <time>2016-01-20T13:14:33Z</time>
      </trkpt>
      <trkpt lat="42.88865" lon="-0.09724">
        <ele>1529</ele>
        <time>2016-01-20T13:14:41Z</time>
      </trkpt>
      <trkpt lat="42.88874" lon="-0.09722">
        <ele>1530</ele>
        <time>2016-01-20T13:14:52Z</time>
      </trkpt>
      <trkpt lat="42.88885" lon="-0.0972">
        <ele>1533</ele>
        <time>2016-01-20T13:15:02Z</time>
      </trkpt>
      <trkpt lat="42.88893" lon="-0.09727">
        <ele>1531</ele>
        <time>2016-01-20T13:15:25Z</time>
      </trkpt>
      <trkpt lat="42.88901" lon="-0.09733">
        <ele>1533</ele>
        <time>2016-01-20T13:15:36Z</time>
      </trkpt>
      <trkpt lat="42.8891" lon="-0.09739">
        <ele>1533</ele>
        <time>2016-01-20T13:15:45Z</time>
      </trkpt>
      <trkpt lat="42.8892" lon="-0.09744">
        <ele>1533</ele>
        <time>2016-01-20T13:15:50Z</time>
      </trkpt>
      <trkpt lat="42.8893" lon="-0.09744">
        <ele>1526</ele>
        <time>2016-01-20T13:16:03Z</time>
      </trkpt>
      <trkpt lat="42.8894" lon="-0.09746">
        <ele>1528</ele>
        <time>2016-01-20T13:16:34Z</time>
      </trkpt>
      <trkpt lat="42.88949" lon="-0.0975">
        <ele>1527</ele>
        <time>2016-01-20T13:16:38Z</time>
      </trkpt>
      <trkpt lat="42.88958" lon="-0.09751">
        <ele>1518</ele>
        <time>2016-01-20T13:17:05Z</time>
      </trkpt>
      <trkpt lat="42.88953" lon="-0.09737">
        <ele>1514</ele>
        <time>2016-01-20T13:17:13Z</time>
      </trkpt>
      <trkpt lat="42.8895" lon="-0.09724">
        <ele>1516</ele>
        <time>2016-01-20T13:17:18Z</time>
      </trkpt>
      <trkpt lat="42.88959" lon="-0.09726">
        <ele>1512</ele>
        <time>2016-01-20T13:17:22Z</time>
      </trkpt>
      <trkpt lat="42.88967" lon="-0.09732">
        <ele>1512</ele>
        <time>2016-01-20T13:17:28Z</time>
      </trkpt>
      <trkpt lat="42.88977" lon="-0.09735">
        <ele>1512</ele>
        <time>2016-01-20T13:17:31Z</time>
      </trkpt>
      <trkpt lat="42.8898" lon="-0.09747">
        <ele>1514</ele>
        <time>2016-01-20T13:17:45Z</time>
      </trkpt>
      <trkpt lat="42.88975" lon="-0.09758">
        <ele>1509</ele>
        <time>2016-01-20T13:17:54Z</time>
      </trkpt>
      <trkpt lat="42.88982" lon="-0.09769">
        <ele>1512</ele>
        <time>2016-01-20T13:18:02Z</time>
      </trkpt>
      <trkpt lat="42.88974" lon="-0.09774">
        <ele>1509</ele>
        <time>2016-01-20T13:18:08Z</time>
      </trkpt>
      <trkpt lat="42.88963" lon="-0.09781">
        <ele>1512</ele>
        <time>2016-01-20T13:18:14Z</time>
      </trkpt>
      <trkpt lat="42.88955" lon="-0.09788">
        <ele>1512</ele>
        <time>2016-01-20T13:18:29Z</time>
      </trkpt>
      <trkpt lat="42.88947" lon="-0.09796">
        <ele>1511</ele>
        <time>2016-01-20T13:18:34Z</time>
      </trkpt>
      <trkpt lat="42.88936" lon="-0.09792">
        <ele>1508</ele>
        <time>2016-01-20T13:18:43Z</time>
      </trkpt>
      <trkpt lat="42.88929" lon="-0.09802">
        <ele>1506</ele>
        <time>2016-01-20T13:18:45Z</time>
      </trkpt>
      <trkpt lat="42.88928" lon="-0.09789">
        <ele>1504</ele>
        <time>2016-01-20T13:18:55Z</time>
      </trkpt>
      <trkpt lat="42.88922" lon="-0.09799">
        <ele>1507</ele>
        <time>2016-01-20T13:19:06Z</time>
      </trkpt>
      <trkpt lat="42.88913" lon="-0.09795">
        <ele>1498</ele>
        <time>2016-01-20T13:19:13Z</time>
      </trkpt>
      <trkpt lat="42.88904" lon="-0.09805">
        <ele>1496</ele>
        <time>2016-01-20T13:19:19Z</time>
      </trkpt>
      <trkpt lat="42.88897" lon="-0.09795">
        <ele>1495</ele>
        <time>2016-01-20T13:19:28Z</time>
      </trkpt>
      <trkpt lat="42.88888" lon="-0.0979">
        <ele>1494</ele>
        <time>2016-01-20T13:19:33Z</time>
      </trkpt>
      <trkpt lat="42.88878" lon="-0.0979">
        <ele>1493</ele>
        <time>2016-01-20T13:19:49Z</time>
      </trkpt>
      <trkpt lat="42.88884" lon="-0.0978">
        <ele>1491</ele>
        <time>2016-01-20T13:20:05Z</time>
      </trkpt>
      <trkpt lat="42.88883" lon="-0.09794">
        <ele>1496</ele>
        <time>2016-01-20T13:20:25Z</time>
      </trkpt>
      <trkpt lat="42.88891" lon="-0.09786">
        <ele>1494</ele>
        <time>2016-01-20T13:20:36Z</time>
      </trkpt>
      <trkpt lat="42.88901" lon="-0.09788">
        <ele>1493</ele>
        <time>2016-01-20T13:20:48Z</time>
      </trkpt>
      <trkpt lat="42.88907" lon="-0.09799">
        <ele>1494</ele>
        <time>2016-01-20T13:21:00Z</time>
      </trkpt>
      <trkpt lat="42.88917" lon="-0.09798">
        <ele>1493</ele>
        <time>2016-01-20T13:21:09Z</time>
      </trkpt>
      <trkpt lat="42.88926" lon="-0.09802">
        <ele>1489</ele>
        <time>2016-01-20T13:21:19Z</time>
      </trkpt>
      <trkpt lat="42.88935" lon="-0.09805">
        <ele>1484</ele>
        <time>2016-01-20T13:21:32Z</time>
      </trkpt>
      <trkpt lat="42.88946" lon="-0.09804">
        <ele>1490</ele>
        <time>2016-01-20T13:21:44Z</time>
      </trkpt>
      <trkpt lat="42.8895" lon="-0.09818">
        <ele>1488</ele>
        <time>2016-01-20T13:21:55Z</time>
      </trkpt>
      <trkpt lat="42.88959" lon="-0.09819">
        <ele>1481</ele>
        <time>2016-01-20T13:22:06Z</time>
      </trkpt>
      <trkpt lat="42.8897" lon="-0.09822">
        <ele>1474</ele>
        <time>2016-01-20T13:22:17Z</time>
      </trkpt>
      <trkpt lat="42.8898" lon="-0.09823">
        <ele>1477</ele>
        <time>2016-01-20T13:22:25Z</time>
      </trkpt>
      <trkpt lat="42.88988" lon="-0.0983">
        <ele>1479</ele>
        <time>2016-01-20T13:22:34Z</time>
      </trkpt>
      <trkpt lat="42.88997" lon="-0.09833">
        <ele>1475</ele>
        <time>2016-01-20T13:22:45Z</time>
      </trkpt>
      <trkpt lat="42.89005" lon="-0.09838">
        <ele>1475</ele>
        <time>2016-01-20T13:22:52Z</time>
      </trkpt>
      <trkpt lat="42.89014" lon="-0.09833">
        <ele>1474</ele>
        <time>2016-01-20T13:23:02Z</time>
      </trkpt>
      <trkpt lat="42.8902" lon="-0.09842">
        <ele>1470</ele>
        <time>2016-01-20T13:23:17Z</time>
      </trkpt>
      <trkpt lat="42.89028" lon="-0.09849">
        <ele>1464</ele>
        <time>2016-01-20T13:23:30Z</time>
      </trkpt>
      <trkpt lat="42.89035" lon="-0.09841">
        <ele>1466</ele>
        <time>2016-01-20T13:23:42Z</time>
      </trkpt>
      <trkpt lat="42.89041" lon="-0.09829">
        <ele>1468</ele>
        <time>2016-01-20T13:23:52Z</time>
      </trkpt>
      <trkpt lat="42.89046" lon="-0.09818">
        <ele>1467</ele>
        <time>2016-01-20T13:24:12Z</time>
      </trkpt>
      <trkpt lat="42.8905" lon="-0.09805">
        <ele>1467</ele>
        <time>2016-01-20T13:24:19Z</time>
      </trkpt>
      <trkpt lat="42.89053" lon="-0.09787">
        <ele>1471</ele>
        <time>2016-01-20T13:24:32Z</time>
      </trkpt>
      <trkpt lat="42.89045" lon="-0.09782">
        <ele>1468</ele>
        <time>2016-01-20T13:24:38Z</time>
      </trkpt>
      <trkpt lat="42.89047" lon="-0.09768">
        <ele>1469</ele>
        <time>2016-01-20T13:24:54Z</time>
      </trkpt>
      <trkpt lat="42.89052" lon="-0.09758">
        <ele>1461</ele>
        <time>2016-01-20T13:25:01Z</time>
      </trkpt>
      <trkpt lat="42.89049" lon="-0.09742">
        <ele>1460</ele>
        <time>2016-01-20T13:25:12Z</time>
      </trkpt>
      <trkpt lat="42.89047" lon="-0.0973">
        <ele>1457</ele>
        <time>2016-01-20T13:25:14Z</time>
      </trkpt>
      <trkpt lat="42.89045" lon="-0.09742">
        <ele>1454</ele>
        <time>2016-01-20T13:25:17Z</time>
      </trkpt>
      <trkpt lat="42.89045" lon="-0.09728">
        <ele>1450</ele>
        <time>2016-01-20T13:25:24Z</time>
      </trkpt>
      <trkpt lat="42.89036" lon="-0.09722">
        <ele>1457</ele>
        <time>2016-01-20T13:25:36Z</time>
      </trkpt>
      <trkpt lat="42.89042" lon="-0.09731">
        <ele>1461</ele>
        <time>2016-01-20T13:26:02Z</time>
      </trkpt>
      <trkpt lat="42.89051" lon="-0.09738">
        <ele>1458</ele>
        <time>2016-01-20T13:29:11Z</time>
      </trkpt>
      <trkpt lat="42.89055" lon="-0.0975">
        <ele>1460</ele>
        <time>2016-01-20T13:29:16Z</time>
      </trkpt>
      <trkpt lat="42.89062" lon="-0.09759">
        <ele>1468</ele>
        <time>2016-01-20T13:29:21Z</time>
      </trkpt>
      <trkpt lat="42.8907" lon="-0.09767">
        <ele>1464</ele>
        <time>2016-01-20T13:29:28Z</time>
      </trkpt>
      <trkpt lat="42.89079" lon="-0.09774">
        <ele>1455</ele>
        <time>2016-01-20T13:29:40Z</time>
      </trkpt>
      <trkpt lat="42.89087" lon="-0.09782">
        <ele>1454</ele>
        <time>2016-01-20T13:29:49Z</time>
      </trkpt>
      <trkpt lat="42.89082" lon="-0.09794">
        <ele>1455</ele>
        <time>2016-01-20T13:30:01Z</time>
      </trkpt>
      <trkpt lat="42.89077" lon="-0.09806">
        <ele>1454</ele>
        <time>2016-01-20T13:30:12Z</time>
      </trkpt>
      <trkpt lat="42.89073" lon="-0.09818">
        <ele>1443</ele>
        <time>2016-01-20T13:30:45Z</time>
      </trkpt>
      <trkpt lat="42.89073" lon="-0.09831">
        <ele>1444</ele>
        <time>2016-01-20T13:30:51Z</time>
      </trkpt>
      <trkpt lat="42.89075" lon="-0.09845">
        <ele>1448</ele>
        <time>2016-01-20T13:30:57Z</time>
      </trkpt>
      <trkpt lat="42.89072" lon="-0.09857">
        <ele>1447</ele>
        <time>2016-01-20T13:31:00Z</time>
      </trkpt>
      <trkpt lat="42.89078" lon="-0.09868">
        <ele>1445</ele>
        <time>2016-01-20T13:31:06Z</time>
      </trkpt>
      <trkpt lat="42.89079" lon="-0.09881">
        <ele>1447</ele>
        <time>2016-01-20T13:31:13Z</time>
      </trkpt>
      <trkpt lat="42.89088" lon="-0.09887">
        <ele>1437</ele>
        <time>2016-01-20T13:31:24Z</time>
      </trkpt>
      <trkpt lat="42.8908" lon="-0.09894">
        <ele>1434</ele>
        <time>2016-01-20T13:31:33Z</time>
      </trkpt>
      <trkpt lat="42.8908" lon="-0.09907">
        <ele>1433</ele>
        <time>2016-01-20T13:31:41Z</time>
      </trkpt>
      <trkpt lat="42.89079" lon="-0.0992">
        <ele>1434</ele>
        <time>2016-01-20T13:31:53Z</time>
      </trkpt>
      <trkpt lat="42.89075" lon="-0.09931">
        <ele>1426</ele>
        <time>2016-01-20T13:32:10Z</time>
      </trkpt>
      <trkpt lat="42.89065" lon="-0.09938">
        <ele>1415</ele>
        <time>2016-01-20T13:32:20Z</time>
      </trkpt>
      <trkpt lat="42.89055" lon="-0.09941">
        <ele>1414</ele>
        <time>2016-01-20T13:32:28Z</time>
      </trkpt>
      <trkpt lat="42.89046" lon="-0.09943">
        <ele>1418</ele>
        <time>2016-01-20T13:32:39Z</time>
      </trkpt>
      <trkpt lat="42.89036" lon="-0.09945">
        <ele>1421</ele>
        <time>2016-01-20T13:32:51Z</time>
      </trkpt>
      <trkpt lat="42.89027" lon="-0.09942">
        <ele>1421</ele>
        <time>2016-01-20T13:33:03Z</time>
      </trkpt>
      <trkpt lat="42.8902" lon="-0.09934">
        <ele>1417</ele>
        <time>2016-01-20T13:33:16Z</time>
      </trkpt>
      <trkpt lat="42.89011" lon="-0.09932">
        <ele>1414</ele>
        <time>2016-01-20T13:33:26Z</time>
      </trkpt>
      <trkpt lat="42.89001" lon="-0.09937">
        <ele>1416</ele>
        <time>2016-01-20T13:33:37Z</time>
      </trkpt>
      <trkpt lat="42.88992" lon="-0.09942">
        <ele>1414</ele>
        <time>2016-01-20T13:33:44Z</time>
      </trkpt>
      <trkpt lat="42.88982" lon="-0.0994">
        <ele>1413</ele>
        <time>2016-01-20T13:33:55Z</time>
      </trkpt>
      <trkpt lat="42.88973" lon="-0.09944">
        <ele>1409</ele>
        <time>2016-01-20T13:34:02Z</time>
      </trkpt>
      <trkpt lat="42.88983" lon="-0.09946">
        <ele>1401</ele>
        <time>2016-01-20T13:34:46Z</time>
      </trkpt>
      <trkpt lat="42.88994" lon="-0.09943">
        <ele>1404</ele>
        <time>2016-01-20T13:34:53Z</time>
      </trkpt>
      <trkpt lat="42.89003" lon="-0.09947">
        <ele>1405</ele>
        <time>2016-01-20T13:35:02Z</time>
      </trkpt>
      <trkpt lat="42.89008" lon="-0.09957">
        <ele>1400</ele>
        <time>2016-01-20T13:35:12Z</time>
      </trkpt>
      <trkpt lat="42.89018" lon="-0.09957">
        <ele>1400</ele>
        <time>2016-01-20T13:35:17Z</time>
      </trkpt>
      <trkpt lat="42.89027" lon="-0.09965">
        <ele>1402</ele>
        <time>2016-01-20T13:35:37Z</time>
      </trkpt>
      <trkpt lat="42.89034" lon="-0.09974">
        <ele>1405</ele>
        <time>2016-01-20T13:35:42Z</time>
      </trkpt>
      <trkpt lat="42.89041" lon="-0.09981">
        <ele>1408</ele>
        <time>2016-01-20T13:35:49Z</time>
      </trkpt>
      <trkpt lat="42.8905" lon="-0.09989">
        <ele>1412</ele>
        <time>2016-01-20T13:36:12Z</time>
      </trkpt>
      <trkpt lat="42.89056" lon="-0.09999">
        <ele>1407</ele>
        <time>2016-01-20T13:36:18Z</time>
      </trkpt>
      <trkpt lat="42.89065" lon="-0.10007">
        <ele>1408</ele>
        <time>2016-01-20T13:36:22Z</time>
      </trkpt>
      <trkpt lat="42.89074" lon="-0.1001">
        <ele>1407</ele>
        <time>2016-01-20T13:36:31Z</time>
      </trkpt>
      <trkpt lat="42.89083" lon="-0.10016">
        <ele>1399</ele>
        <time>2016-01-20T13:36:58Z</time>
      </trkpt>
      <trkpt lat="42.89092" lon="-0.10022">
        <ele>1394</ele>
        <time>2016-01-20T13:37:06Z</time>
      </trkpt>
      <trkpt lat="42.89101" lon="-0.1002">
        <ele>1390</ele>
        <time>2016-01-20T13:37:14Z</time>
      </trkpt>
      <trkpt lat="42.89111" lon="-0.1002">
        <ele>1381</ele>
        <time>2016-01-20T13:37:46Z</time>
      </trkpt>
      <trkpt lat="42.89121" lon="-0.10018">
        <ele>1385</ele>
        <time>2016-01-20T13:37:50Z</time>
      </trkpt>
      <trkpt lat="42.89127" lon="-0.10009">
        <ele>1380</ele>
        <time>2016-01-20T13:38:00Z</time>
      </trkpt>
      <trkpt lat="42.89137" lon="-0.10004">
        <ele>1377</ele>
        <time>2016-01-20T13:38:15Z</time>
      </trkpt>
      <trkpt lat="42.89145" lon="-0.09993">
        <ele>1375</ele>
        <time>2016-01-20T13:38:21Z</time>
      </trkpt>
      <trkpt lat="42.89136" lon="-0.09985">
        <ele>1373</ele>
        <time>2016-01-20T13:38:27Z</time>
      </trkpt>
      <trkpt lat="42.89131" lon="-0.09975">
        <ele>1376</ele>
        <time>2016-01-20T13:38:46Z</time>
      </trkpt>
      <trkpt lat="42.8913" lon="-0.09959">
        <ele>1378</ele>
        <time>2016-01-20T13:38:57Z</time>
      </trkpt>
      <trkpt lat="42.8913" lon="-0.09945">
        <ele>1382</ele>
        <time>2016-01-20T13:39:01Z</time>
      </trkpt>
      <trkpt lat="42.89139" lon="-0.09947">
        <ele>1383</ele>
        <time>2016-01-20T13:39:42Z</time>
      </trkpt>
      <trkpt lat="42.89149" lon="-0.09953">
        <ele>1384</ele>
        <time>2016-01-20T13:39:47Z</time>
      </trkpt>
      <trkpt lat="42.89159" lon="-0.09956">
        <ele>1381</ele>
        <time>2016-01-20T13:39:53Z</time>
      </trkpt>
      <trkpt lat="42.89165" lon="-0.09964">
        <ele>1369</ele>
        <time>2016-01-20T13:40:03Z</time>
      </trkpt>
      <trkpt lat="42.89161" lon="-0.09976">
        <ele>1361</ele>
        <time>2016-01-20T13:40:10Z</time>
      </trkpt>
      <trkpt lat="42.89162" lon="-0.0999">
        <ele>1361</ele>
        <time>2016-01-20T13:40:22Z</time>
      </trkpt>
      <trkpt lat="42.89163" lon="-0.10005">
        <ele>1365</ele>
        <time>2016-01-20T13:40:30Z</time>
      </trkpt>
      <trkpt lat="42.89162" lon="-0.1002">
        <ele>1366</ele>
        <time>2016-01-20T13:40:39Z</time>
      </trkpt>
      <trkpt lat="42.89159" lon="-0.10032">
        <ele>1359</ele>
        <time>2016-01-20T13:40:52Z</time>
      </trkpt>
      <trkpt lat="42.89168" lon="-0.1003">
        <ele>1356</ele>
        <time>2016-01-20T13:42:11Z</time>
      </trkpt>
      <trkpt lat="42.89179" lon="-0.10038">
        <ele>1359</ele>
        <time>2016-01-20T13:48:33Z</time>
      </trkpt>
      <trkpt lat="42.89186" lon="-0.10046">
        <ele>1357</ele>
        <time>2016-01-20T13:49:03Z</time>
      </trkpt>
      <trkpt lat="42.89187" lon="-0.10058">
        <ele>1356</ele>
        <time>2016-01-20T13:49:13Z</time>
      </trkpt>
      <trkpt lat="42.89181" lon="-0.1007">
        <ele>1347</ele>
        <time>2016-01-20T13:49:21Z</time>
      </trkpt>
      <trkpt lat="42.89175" lon="-0.10081">
        <ele>1342</ele>
        <time>2016-01-20T13:49:27Z</time>
      </trkpt>
      <trkpt lat="42.89166" lon="-0.10083">
        <ele>1332</ele>
        <time>2016-01-20T13:49:36Z</time>
      </trkpt>
      <trkpt lat="42.89157" lon="-0.10087">
        <ele>1328</ele>
        <time>2016-01-20T13:49:44Z</time>
      </trkpt>
      <trkpt lat="42.8915" lon="-0.10095">
        <ele>1333</ele>
        <time>2016-01-20T13:49:55Z</time>
      </trkpt>
      <trkpt lat="42.89144" lon="-0.10109">
        <ele>1334</ele>
        <time>2016-01-20T13:50:09Z</time>
      </trkpt>
      <trkpt lat="42.89142" lon="-0.10122">
        <ele>1332</ele>
        <time>2016-01-20T13:50:17Z</time>
      </trkpt>
      <trkpt lat="42.89146" lon="-0.10133">
        <ele>1326</ele>
        <time>2016-01-20T13:50:32Z</time>
      </trkpt>
      <trkpt lat="42.89145" lon="-0.10146">
        <ele>1323</ele>
        <time>2016-01-20T13:50:44Z</time>
      </trkpt>
      <trkpt lat="42.89145" lon="-0.10159">
        <ele>1324</ele>
        <time>2016-01-20T13:50:54Z</time>
      </trkpt>
      <trkpt lat="42.89141" lon="-0.10172">
        <ele>1326</ele>
        <time>2016-01-20T13:51:01Z</time>
      </trkpt>
      <trkpt lat="42.89133" lon="-0.1018">
        <ele>1322</ele>
        <time>2016-01-20T13:51:13Z</time>
      </trkpt>
      <trkpt lat="42.89124" lon="-0.10183">
        <ele>1320</ele>
        <time>2016-01-20T13:51:24Z</time>
      </trkpt>
      <trkpt lat="42.89133" lon="-0.10178">
        <ele>1319</ele>
        <time>2016-01-20T13:51:57Z</time>
      </trkpt>
      <trkpt lat="42.89141" lon="-0.10169">
        <ele>1318</ele>
        <time>2016-01-20T13:52:07Z</time>
      </trkpt>
      <trkpt lat="42.8915" lon="-0.10164">
        <ele>1322</ele>
        <time>2016-01-20T13:52:13Z</time>
      </trkpt>
      <trkpt lat="42.89159" lon="-0.10157">
        <ele>1327</ele>
        <time>2016-01-20T13:52:21Z</time>
      </trkpt>
      <trkpt lat="42.89154" lon="-0.10147">
        <ele>1327</ele>
        <time>2016-01-20T13:52:36Z</time>
      </trkpt>
      <trkpt lat="42.89164" lon="-0.10144">
        <ele>1329</ele>
        <time>2016-01-20T13:52:45Z</time>
      </trkpt>
      <trkpt lat="42.89173" lon="-0.10145">
        <ele>1326</ele>
        <time>2016-01-20T13:52:55Z</time>
      </trkpt>
      <trkpt lat="42.89184" lon="-0.10145">
        <ele>1324</ele>
        <time>2016-01-20T13:53:04Z</time>
      </trkpt>
      <trkpt lat="42.89192" lon="-0.10151">
        <ele>1324</ele>
        <time>2016-01-20T13:53:16Z</time>
      </trkpt>
      <trkpt lat="42.89184" lon="-0.10156">
        <ele>1315</ele>
        <time>2016-01-20T13:53:32Z</time>
      </trkpt>
      <trkpt lat="42.89173" lon="-0.10158">
        <ele>1317</ele>
        <time>2016-01-20T13:53:48Z</time>
      </trkpt>
      <trkpt lat="42.89168" lon="-0.10168">
        <ele>1309</ele>
        <time>2016-01-20T13:54:08Z</time>
      </trkpt>
      <trkpt lat="42.89165" lon="-0.10181">
        <ele>1308</ele>
        <time>2016-01-20T13:54:13Z</time>
      </trkpt>
      <trkpt lat="42.89162" lon="-0.10195">
        <ele>1306</ele>
        <time>2016-01-20T13:54:25Z</time>
      </trkpt>
      <trkpt lat="42.89163" lon="-0.10208">
        <ele>1310</ele>
        <time>2016-01-20T13:54:41Z</time>
      </trkpt>
      <trkpt lat="42.89164" lon="-0.10221">
        <ele>1308</ele>
        <time>2016-01-20T13:54:50Z</time>
      </trkpt>
      <trkpt lat="42.89158" lon="-0.1023">
        <ele>1304</ele>
        <time>2016-01-20T13:55:01Z</time>
      </trkpt>
      <trkpt lat="42.8915" lon="-0.10239">
        <ele>1301</ele>
        <time>2016-01-20T13:55:08Z</time>
      </trkpt>
      <trkpt lat="42.8914" lon="-0.10244">
        <ele>1301</ele>
        <time>2016-01-20T13:55:17Z</time>
      </trkpt>
      <trkpt lat="42.8913" lon="-0.10244">
        <ele>1296</ele>
        <time>2016-01-20T13:55:27Z</time>
      </trkpt>
      <trkpt lat="42.89121" lon="-0.10248">
        <ele>1291</ele>
        <time>2016-01-20T13:55:36Z</time>
      </trkpt>
      <trkpt lat="42.89112" lon="-0.10247">
        <ele>1293</ele>
        <time>2016-01-20T13:55:49Z</time>
      </trkpt>
      <trkpt lat="42.89103" lon="-0.10243">
        <ele>1295</ele>
        <time>2016-01-20T13:55:58Z</time>
      </trkpt>
      <trkpt lat="42.89108" lon="-0.10253">
        <ele>1286</ele>
        <time>2016-01-20T13:56:25Z</time>
      </trkpt>
      <trkpt lat="42.89118" lon="-0.10257">
        <ele>1276</ele>
        <time>2016-01-20T13:56:35Z</time>
      </trkpt>
      <trkpt lat="42.89127" lon="-0.10259">
        <ele>1279</ele>
        <time>2016-01-20T13:56:43Z</time>
      </trkpt>
      <trkpt lat="42.89136" lon="-0.1026">
        <ele>1280</ele>
        <time>2016-01-20T13:56:53Z</time>
      </trkpt>
      <trkpt lat="42.89149" lon="-0.10257">
        <ele>1282</ele>
        <time>2016-01-20T13:57:02Z</time>
      </trkpt>
      <trkpt lat="42.89158" lon="-0.10264">
        <ele>1278</ele>
        <time>2016-01-20T13:57:15Z</time>
      </trkpt>
      <trkpt lat="42.89167" lon="-0.10266">
        <ele>1278</ele>
        <time>2016-01-20T13:57:27Z</time>
      </trkpt>
      <trkpt lat="42.89176" lon="-0.10263">
        <ele>1275</ele>
        <time>2016-01-20T13:57:48Z</time>
      </trkpt>
      <trkpt lat="42.89174" lon="-0.10275">
        <ele>1273</ele>
        <time>2016-01-20T13:58:02Z</time>
      </trkpt>
      <trkpt lat="42.89167" lon="-0.10284">
        <ele>1272</ele>
        <time>2016-01-20T13:58:12Z</time>
      </trkpt>
      <trkpt lat="42.89159" lon="-0.10293">
        <ele>1273</ele>
        <time>2016-01-20T13:58:21Z</time>
      </trkpt>
      <trkpt lat="42.8915" lon="-0.10296">
        <ele>1270</ele>
        <time>2016-01-20T13:58:32Z</time>
      </trkpt>
      <trkpt lat="42.8914" lon="-0.10295">
        <ele>1270</ele>
        <time>2016-01-20T13:58:41Z</time>
      </trkpt>
      <trkpt lat="42.89131" lon="-0.10299">
        <ele>1270</ele>
        <time>2016-01-20T13:58:49Z</time>
      </trkpt>
      <trkpt lat="42.89122" lon="-0.10303">
        <ele>1267</ele>
        <time>2016-01-20T13:58:59Z</time>
      </trkpt>
      <trkpt lat="42.89112" lon="-0.10303">
        <ele>1265</ele>
        <time>2016-01-20T13:59:10Z</time>
      </trkpt>
      <trkpt lat="42.89103" lon="-0.10306">
        <ele>1266</ele>
        <time>2016-01-20T13:59:18Z</time>
      </trkpt>
      <trkpt lat="42.89094" lon="-0.10306">
        <ele>1266</ele>
        <time>2016-01-20T13:59:27Z</time>
      </trkpt>
      <trkpt lat="42.89103" lon="-0.10304">
        <ele>1265</ele>
        <time>2016-01-20T13:59:50Z</time>
      </trkpt>
      <trkpt lat="42.89113" lon="-0.10308">
        <ele>1262</ele>
        <time>2016-01-20T14:00:17Z</time>
      </trkpt>
      <trkpt lat="42.89123" lon="-0.10309">
        <ele>1258</ele>
        <time>2016-01-20T14:00:23Z</time>
      </trkpt>
      <trkpt lat="42.89132" lon="-0.10311">
        <ele>1258</ele>
        <time>2016-01-20T14:00:31Z</time>
      </trkpt>
      <trkpt lat="42.89141" lon="-0.10312">
        <ele>1261</ele>
        <time>2016-01-20T14:00:38Z</time>
      </trkpt>
      <trkpt lat="42.8915" lon="-0.10318">
        <ele>1260</ele>
        <time>2016-01-20T14:00:50Z</time>
      </trkpt>
      <trkpt lat="42.89158" lon="-0.10324">
        <ele>1254</ele>
        <time>2016-01-20T14:01:01Z</time>
      </trkpt>
      <trkpt lat="42.89167" lon="-0.10325">
        <ele>1256</ele>
        <time>2016-01-20T14:01:10Z</time>
      </trkpt>
      <trkpt lat="42.89177" lon="-0.10326">
        <ele>1259</ele>
        <time>2016-01-20T14:01:19Z</time>
      </trkpt>
      <trkpt lat="42.89186" lon="-0.10324">
        <ele>1257</ele>
        <time>2016-01-20T14:01:28Z</time>
      </trkpt>
      <trkpt lat="42.89194" lon="-0.10318">
        <ele>1252</ele>
        <time>2016-01-20T14:01:38Z</time>
      </trkpt>
      <trkpt lat="42.89203" lon="-0.10313">
        <ele>1246</ele>
        <time>2016-01-20T14:01:48Z</time>
      </trkpt>
      <trkpt lat="42.89212" lon="-0.10308">
        <ele>1242</ele>
        <time>2016-01-20T14:01:59Z</time>
      </trkpt>
      <trkpt lat="42.89218" lon="-0.10299">
        <ele>1239</ele>
        <time>2016-01-20T14:02:10Z</time>
      </trkpt>
      <trkpt lat="42.89224" lon="-0.10286">
        <ele>1239</ele>
        <time>2016-01-20T14:02:50Z</time>
      </trkpt>
      <trkpt lat="42.89231" lon="-0.10274">
        <ele>1235</ele>
        <time>2016-01-20T14:02:53Z</time>
      </trkpt>
      <trkpt lat="42.89239" lon="-0.10263">
        <ele>1228</ele>
        <time>2016-01-20T14:02:58Z</time>
      </trkpt>
      <trkpt lat="42.89248" lon="-0.10259">
        <ele>1231</ele>
        <time>2016-01-20T14:03:05Z</time>
      </trkpt>
      <trkpt lat="42.89254" lon="-0.1025">
        <ele>1228</ele>
        <time>2016-01-20T14:03:13Z</time>
      </trkpt>
      <trkpt lat="42.89256" lon="-0.10238">
        <ele>1228</ele>
        <time>2016-01-20T14:03:20Z</time>
      </trkpt>
      <trkpt lat="42.89258" lon="-0.10224">
        <ele>1225</ele>
        <time>2016-01-20T14:03:32Z</time>
      </trkpt>
      <trkpt lat="42.89257" lon="-0.10211">
        <ele>1223</ele>
        <time>2016-01-20T14:03:41Z</time>
      </trkpt>
      <trkpt lat="42.89254" lon="-0.10199">
        <ele>1221</ele>
        <time>2016-01-20T14:03:50Z</time>
      </trkpt>
      <trkpt lat="42.89259" lon="-0.10188">
        <ele>1226</ele>
        <time>2016-01-20T14:03:58Z</time>
      </trkpt>
      <trkpt lat="42.89255" lon="-0.10176">
        <ele>1228</ele>
        <time>2016-01-20T14:04:05Z</time>
      </trkpt>
      <trkpt lat="42.89266" lon="-0.10169">
        <ele>1236</ele>
        <time>2016-01-20T14:04:13Z</time>
      </trkpt>
      <trkpt lat="42.8927" lon="-0.10181">
        <ele>1232</ele>
        <time>2016-01-20T14:04:40Z</time>
      </trkpt>
      <trkpt lat="42.89274" lon="-0.10192">
        <ele>1229</ele>
        <time>2016-01-20T14:04:47Z</time>
      </trkpt>
      <trkpt lat="42.89282" lon="-0.10201">
        <ele>1235</ele>
        <time>2016-01-20T14:04:56Z</time>
      </trkpt>
      <trkpt lat="42.89284" lon="-0.10213">
        <ele>1234</ele>
        <time>2016-01-20T14:05:07Z</time>
      </trkpt>
      <trkpt lat="42.89292" lon="-0.10221">
        <ele>1237</ele>
        <time>2016-01-20T14:05:13Z</time>
      </trkpt>
      <trkpt lat="42.89286" lon="-0.10233">
        <ele>1224</ele>
        <time>2016-01-20T14:05:22Z</time>
      </trkpt>
      <trkpt lat="42.89278" lon="-0.10244">
        <ele>1199</ele>
        <time>2016-01-20T14:05:51Z</time>
      </trkpt>
      <trkpt lat="42.89275" lon="-0.10256">
        <ele>1197</ele>
        <time>2016-01-20T14:06:01Z</time>
      </trkpt>
      <trkpt lat="42.89268" lon="-0.10264">
        <ele>1195</ele>
        <time>2016-01-20T14:06:12Z</time>
      </trkpt>
      <trkpt lat="42.89268" lon="-0.10278">
        <ele>1202</ele>
        <time>2016-01-20T14:06:24Z</time>
      </trkpt>
      <trkpt lat="42.89276" lon="-0.10287">
        <ele>1207</ele>
        <time>2016-01-20T14:06:30Z</time>
      </trkpt>
      <trkpt lat="42.89273" lon="-0.10299">
        <ele>1203</ele>
        <time>2016-01-20T14:06:38Z</time>
      </trkpt>
      <trkpt lat="42.89269" lon="-0.10311">
        <ele>1200</ele>
        <time>2016-01-20T14:06:45Z</time>
      </trkpt>
      <trkpt lat="42.89267" lon="-0.10324">
        <ele>1201</ele>
        <time>2016-01-20T14:06:52Z</time>
      </trkpt>
      <trkpt lat="42.89262" lon="-0.10334">
        <ele>1201</ele>
        <time>2016-01-20T14:07:01Z</time>
      </trkpt>
      <trkpt lat="42.89262" lon="-0.10348">
        <ele>1203</ele>
        <time>2016-01-20T14:07:10Z</time>
      </trkpt>
      <trkpt lat="42.89258" lon="-0.10359">
        <ele>1200</ele>
        <time>2016-01-20T14:07:21Z</time>
      </trkpt>
      <trkpt lat="42.89251" lon="-0.10367">
        <ele>1199</ele>
        <time>2016-01-20T14:07:28Z</time>
      </trkpt>
      <trkpt lat="42.89247" lon="-0.10378">
        <ele>1198</ele>
        <time>2016-01-20T14:07:38Z</time>
      </trkpt>
      <trkpt lat="42.8924" lon="-0.10386">
        <ele>1195</ele>
        <time>2016-01-20T14:07:47Z</time>
      </trkpt>
      <trkpt lat="42.89234" lon="-0.10397">
        <ele>1193</ele>
        <time>2016-01-20T14:07:58Z</time>
      </trkpt>
      <trkpt lat="42.89229" lon="-0.10407">
        <ele>1190</ele>
        <time>2016-01-20T14:08:06Z</time>
      </trkpt>
      <trkpt lat="42.89221" lon="-0.10414">
        <ele>1189</ele>
        <time>2016-01-20T14:08:17Z</time>
      </trkpt>
      <trkpt lat="42.89214" lon="-0.10422">
        <ele>1189</ele>
        <time>2016-01-20T14:08:49Z</time>
      </trkpt>
      <trkpt lat="42.89207" lon="-0.1043">
        <ele>1189</ele>
        <time>2016-01-20T14:09:01Z</time>
      </trkpt>
      <trkpt lat="42.89203" lon="-0.10441">
        <ele>1192</ele>
        <time>2016-01-20T14:09:31Z</time>
      </trkpt>
      <trkpt lat="42.89195" lon="-0.10447">
        <ele>1189</ele>
        <time>2016-01-20T14:09:40Z</time>
      </trkpt>
      <trkpt lat="42.89186" lon="-0.10448">
        <ele>1185</ele>
        <time>2016-01-20T14:09:50Z</time>
      </trkpt>
      <trkpt lat="42.89178" lon="-0.10456">
        <ele>1186</ele>
        <time>2016-01-20T14:09:58Z</time>
      </trkpt>
      <trkpt lat="42.8917" lon="-0.10462">
        <ele>1184</ele>
        <time>2016-01-20T14:10:07Z</time>
      </trkpt>
      <trkpt lat="42.89161" lon="-0.10468">
        <ele>1181</ele>
        <time>2016-01-20T14:10:16Z</time>
      </trkpt>
      <trkpt lat="42.89152" lon="-0.10472">
        <ele>1179</ele>
        <time>2016-01-20T14:10:32Z</time>
      </trkpt>
      <trkpt lat="42.89142" lon="-0.10472">
        <ele>1176</ele>
        <time>2016-01-20T14:10:41Z</time>
      </trkpt>
      <trkpt lat="42.89133" lon="-0.10476">
        <ele>1176</ele>
        <time>2016-01-20T14:10:49Z</time>
      </trkpt>
      <trkpt lat="42.89143" lon="-0.10475">
        <ele>1175</ele>
        <time>2016-01-20T14:17:22Z</time>
      </trkpt>
      <trkpt lat="42.89152" lon="-0.10478">
        <ele>1173</ele>
        <time>2016-01-20T14:17:48Z</time>
      </trkpt>
      <trkpt lat="42.89161" lon="-0.1048">
        <ele>1172</ele>
        <time>2016-01-20T14:17:54Z</time>
      </trkpt>
      <trkpt lat="42.89172" lon="-0.10478">
        <ele>1171</ele>
        <time>2016-01-20T14:18:01Z</time>
      </trkpt>
      <trkpt lat="42.89182" lon="-0.1048">
        <ele>1173</ele>
        <time>2016-01-20T14:18:09Z</time>
      </trkpt>
      <trkpt lat="42.89191" lon="-0.10484">
        <ele>1173</ele>
        <time>2016-01-20T14:18:16Z</time>
      </trkpt>
      <trkpt lat="42.89199" lon="-0.10489">
        <ele>1168</ele>
        <time>2016-01-20T14:18:26Z</time>
      </trkpt>
      <trkpt lat="42.89209" lon="-0.10492">
        <ele>1172</ele>
        <time>2016-01-20T14:18:36Z</time>
      </trkpt>
      <trkpt lat="42.89219" lon="-0.10489">
        <ele>1171</ele>
        <time>2016-01-20T14:18:47Z</time>
      </trkpt>
      <trkpt lat="42.89227" lon="-0.10481">
        <ele>1172</ele>
        <time>2016-01-20T14:18:57Z</time>
      </trkpt>
      <trkpt lat="42.89234" lon="-0.10473">
        <ele>1172</ele>
        <time>2016-01-20T14:19:05Z</time>
      </trkpt>
      <trkpt lat="42.89244" lon="-0.10471">
        <ele>1171</ele>
        <time>2016-01-20T14:19:22Z</time>
      </trkpt>
      <trkpt lat="42.89252" lon="-0.10462">
        <ele>1168</ele>
        <time>2016-01-20T14:19:33Z</time>
      </trkpt>
      <trkpt lat="42.89258" lon="-0.10451">
        <ele>1164</ele>
        <time>2016-01-20T14:19:41Z</time>
      </trkpt>
      <trkpt lat="42.89262" lon="-0.10439">
        <ele>1162</ele>
        <time>2016-01-20T14:19:49Z</time>
      </trkpt>
      <trkpt lat="42.89263" lon="-0.10427">
        <ele>1163</ele>
        <time>2016-01-20T14:20:00Z</time>
      </trkpt>
      <trkpt lat="42.89273" lon="-0.10425">
        <ele>1162</ele>
        <time>2016-01-20T14:20:08Z</time>
      </trkpt>
      <trkpt lat="42.89284" lon="-0.10423">
        <ele>1161</ele>
        <time>2016-01-20T14:20:14Z</time>
      </trkpt>
      <trkpt lat="42.89293" lon="-0.10419">
        <ele>1158</ele>
        <time>2016-01-20T14:20:25Z</time>
      </trkpt>
      <trkpt lat="42.893" lon="-0.1041">
        <ele>1158</ele>
        <time>2016-01-20T14:20:37Z</time>
      </trkpt>
      <trkpt lat="42.89309" lon="-0.10407">
        <ele>1157</ele>
        <time>2016-01-20T14:20:41Z</time>
      </trkpt>
      <trkpt lat="42.89303" lon="-0.10416">
        <ele>1145</ele>
        <time>2016-01-20T14:20:53Z</time>
      </trkpt>
      <trkpt lat="42.893" lon="-0.10428">
        <ele>1142</ele>
        <time>2016-01-20T14:21:11Z</time>
      </trkpt>
      <trkpt lat="42.89292" lon="-0.10437">
        <ele>1145</ele>
        <time>2016-01-20T14:21:20Z</time>
      </trkpt>
      <trkpt lat="42.89287" lon="-0.10447">
        <ele>1145</ele>
        <time>2016-01-20T14:21:33Z</time>
      </trkpt>
      <trkpt lat="42.89285" lon="-0.1046">
        <ele>1144</ele>
        <time>2016-01-20T14:21:42Z</time>
      </trkpt>
      <trkpt lat="42.89283" lon="-0.10472">
        <ele>1143</ele>
        <time>2016-01-20T14:21:51Z</time>
      </trkpt>
      <trkpt lat="42.89278" lon="-0.10483">
        <ele>1140</ele>
        <time>2016-01-20T14:22:01Z</time>
      </trkpt>
      <trkpt lat="42.89273" lon="-0.10494">
        <ele>1140</ele>
        <time>2016-01-20T14:22:09Z</time>
      </trkpt>
      <trkpt lat="42.89267" lon="-0.10503">
        <ele>1135</ele>
        <time>2016-01-20T14:22:20Z</time>
      </trkpt>
      <trkpt lat="42.89263" lon="-0.10514">
        <ele>1138</ele>
        <time>2016-01-20T14:22:34Z</time>
      </trkpt>
      <trkpt lat="42.89259" lon="-0.10526">
        <ele>1140</ele>
        <time>2016-01-20T14:22:42Z</time>
      </trkpt>
      <trkpt lat="42.89253" lon="-0.10536">
        <ele>1139</ele>
        <time>2016-01-20T14:22:52Z</time>
      </trkpt>
      <trkpt lat="42.89249" lon="-0.10548">
        <ele>1138</ele>
        <time>2016-01-20T14:23:02Z</time>
      </trkpt>
      <trkpt lat="42.89241" lon="-0.10555">
        <ele>1138</ele>
        <time>2016-01-20T14:23:14Z</time>
      </trkpt>
      <trkpt lat="42.89239" lon="-0.10569">
        <ele>1135</ele>
        <time>2016-01-20T14:23:26Z</time>
      </trkpt>
      <trkpt lat="42.89242" lon="-0.10581">
        <ele>1137</ele>
        <time>2016-01-20T14:23:34Z</time>
      </trkpt>
      <trkpt lat="42.89239" lon="-0.10593">
        <ele>1135</ele>
        <time>2016-01-20T14:23:46Z</time>
      </trkpt>
      <trkpt lat="42.89231" lon="-0.10602">
        <ele>1132</ele>
        <time>2016-01-20T14:23:54Z</time>
      </trkpt>
      <trkpt lat="42.89225" lon="-0.10611">
        <ele>1125</ele>
        <time>2016-01-20T14:24:06Z</time>
      </trkpt>
      <trkpt lat="42.8922" lon="-0.10624">
        <ele>1120</ele>
        <time>2016-01-20T14:24:23Z</time>
      </trkpt>
      <trkpt lat="42.89211" lon="-0.10629">
        <ele>1119</ele>
        <time>2016-01-20T14:24:32Z</time>
      </trkpt>
      <trkpt lat="42.89202" lon="-0.10635">
        <ele>1118</ele>
        <time>2016-01-20T14:24:39Z</time>
      </trkpt>
      <trkpt lat="42.89192" lon="-0.10635">
        <ele>1117</ele>
        <time>2016-01-20T14:24:46Z</time>
      </trkpt>
      <trkpt lat="42.89183" lon="-0.10637">
        <ele>1115</ele>
        <time>2016-01-20T14:25:00Z</time>
      </trkpt>
      <trkpt lat="42.89177" lon="-0.10647">
        <ele>1119</ele>
        <time>2016-01-20T14:25:22Z</time>
      </trkpt>
      <trkpt lat="42.89171" lon="-0.10656">
        <ele>1120</ele>
        <time>2016-01-20T14:25:31Z</time>
      </trkpt>
      <trkpt lat="42.89164" lon="-0.10665">
        <ele>1110</ele>
        <time>2016-01-20T14:25:57Z</time>
      </trkpt>
      <trkpt lat="42.89172" lon="-0.10672">
        <ele>1109</ele>
        <time>2016-01-20T14:26:38Z</time>
      </trkpt>
      <trkpt lat="42.89182" lon="-0.10672">
        <ele>1111</ele>
        <time>2016-01-20T14:26:46Z</time>
      </trkpt>
      <trkpt lat="42.8919" lon="-0.10676">
        <ele>1108</ele>
        <time>2016-01-20T14:26:54Z</time>
      </trkpt>
      <trkpt lat="42.89198" lon="-0.10683">
        <ele>1107</ele>
        <time>2016-01-20T14:27:01Z</time>
      </trkpt>
      <trkpt lat="42.89206" lon="-0.10691">
        <ele>1106</ele>
        <time>2016-01-20T14:27:10Z</time>
      </trkpt>
      <trkpt lat="42.89216" lon="-0.10693">
        <ele>1105</ele>
        <time>2016-01-20T14:27:19Z</time>
      </trkpt>
      <trkpt lat="42.89225" lon="-0.10694">
        <ele>1102</ele>
        <time>2016-01-20T14:27:29Z</time>
      </trkpt>
      <trkpt lat="42.89234" lon="-0.10698">
        <ele>1100</ele>
        <time>2016-01-20T14:27:38Z</time>
      </trkpt>
      <trkpt lat="42.89243" lon="-0.10699">
        <ele>1100</ele>
        <time>2016-01-20T14:27:51Z</time>
      </trkpt>
      <trkpt lat="42.89251" lon="-0.10706">
        <ele>1094</ele>
        <time>2016-01-20T14:28:32Z</time>
      </trkpt>
      <trkpt lat="42.89253" lon="-0.10719">
        <ele>1085</ele>
        <time>2016-01-20T14:28:56Z</time>
      </trkpt>
      <trkpt lat="42.89261" lon="-0.10714">
        <ele>1087</ele>
        <time>2016-01-20T14:29:04Z</time>
      </trkpt>
      <trkpt lat="42.89272" lon="-0.10713">
        <ele>1089</ele>
        <time>2016-01-20T14:29:14Z</time>
      </trkpt>
      <trkpt lat="42.89277" lon="-0.10702">
        <ele>1087</ele>
        <time>2016-01-20T14:29:25Z</time>
        <extensions>
          <visugpx:TrkExtension xmlns:visugpx="https://www.visugpx.com/editgpx/">
            <visugpx:node>1</visugpx:node>
            </visugpx:TrkExtension>
        </extensions>
      </trkpt>
    </trkseg>
  </trk>
</gpx>